Flight Track Log - Related Links

Times and Time Zones

All times are in EDT time to prevent confusion due to time zone crossing. See the N662US flight status page for this flight to view local times or setup timezone preferences in your user account.

Time Position Orientation Groundspeed Altitude Reporting Facility
EDT Latitude Longitude Course Direction KTS MPH feet Rate Location/Type
Fri 02:23:37 AM 35.6790 140.4370 147° Southeast 188 216 2,700  Level FlightAware ADS-B
Fri 02:24:07 AM 35.6540 140.4550 150° Southeast 189 217 3,400 1,067 Climbing FlightAware ADS-B
Fri 02:24:22 AM 35.6440 140.4620 150° Southeast 203 234 3,500 450 Climbing FlightAware ADS-B
Fri 02:24:47 AM 35.6240 140.4770 149° Southeast 205 236 3,700 667 Climbing FlightAware ADS-B
Fri 02:25:16 AM 35.5940 140.4990 149° Southeast 246 283 4,100 892 Climbing FlightAware ADS-B
Fri 02:26:01 AM 35.5520 140.5350 145° Southeast 274 315 4,800 1,019 Climbing FlightAware ADS-B
Fri 02:26:09 AM 35.5450 140.5530 116° Southeast 279 321 5,000 1,655 Climbing FlightAware ADS-B
Fri 02:26:30 AM 35.5400 140.5830 102° East 283 326 5,600 2,040 Climbing FlightAware ADS-B
Fri 02:26:59 AM 35.5360 140.6320 96° East 293 337 6,700 1,698 Climbing FlightAware ADS-B
Fri 02:27:23 AM 35.5330 140.6690 96° East 302 348 7,100 462 Climbing FlightAware ADS-B
Fri 02:27:51 AM 35.5290 140.7190 96° East 302 348 7,100  Level FlightAware ADS-B
Fri 02:28:20 AM 35.5250 140.7610 97° East 301 346 7,100  Level FlightAware ADS-B
Fri 02:28:46 AM 35.5190 140.8160 98° East 302 348 7,100 667 Level FlightAware ADS-B
Fri 02:29:14 AM 35.5150 140.8550 97° East 304 350 7,700 1,826 Climbing FlightAware ADS-B
Fri 02:29:32 AM 35.5120 140.8860 97° East 305 351 8,500 2,553 Climbing FlightAware ADS-B
Fri 02:30:01 AM 35.5070 140.9400 96° East 309 356 9,700 2,032 Climbing FlightAware ADS-B
Fri 02:30:34 AM 35.5010 141.0000 97° East 323 372 10,600 1,037 Climbing FlightAware ADS-B
Fri 02:31:22 AM 35.4930 141.0820 97° East 363 418 11,100 791 Climbing FlightAware ADS-B
Fri 02:32:05 AM 35.4660 141.1850 108° East 403 464 11,800 1,171 Climbing FlightAware ADS-B
Fri 02:32:44 AM 35.4370 141.2770 111° Southeast 427 491 12,700 1,482 Climbing FlightAware ADS-B
Fri 02:33:30 AM 35.4040 141.3840 111° Southeast 442 509 13,900 1,407 Climbing FlightAware ADS-B
Fri 02:34:05 AM 35.3810 141.4590 111° Southeast 461 531 14,600 1,229 Climbing FlightAware ADS-B
Fri 02:34:53 AM 35.3420 141.5880 110° East 469 540 15,600 1,416 Climbing FlightAware ADS-B
Fri 02:35:34 AM 35.3120 141.6860 111° Southeast 473 544 16,700 1,590 Climbing FlightAware ADS-B
Fri 02:36:16 AM 35.2790 141.7900 111° Southeast 481 554 17,800 1,605 Climbing FlightAware ADS-B
Fri 02:37:00 AM 35.2450 141.8980 111° Southeast 486 559 19,000 1,429 Climbing FlightAware ADS-B
Fri 02:37:40 AM 35.2110 142.0080 111° Southeast 499 574 19,800 1,304 Climbing FlightAware ADS-B
Fri 02:38:32 AM 35.1710 142.1510 109° East 506 582 21,000 1,009 Climbing FlightAware ADS-B
Fri 02:39:27 AM 35.1640 142.2990 93° East 517 595 21,600 1,163 Climbing FlightAware ADS-B
Fri 02:40:10 AM 35.1790 142.4230 82° East 520 598 22,900 1,091 Climbing FlightAware ADS-B
Fri 02:40:55 AM 35.1950 142.5480 81° East 520 598 23,200 944 Climbing FlightAware ADS-B
Fri 02:41:39 AM 35.2440 142.6980 68° East 543 625 24,300 786 Climbing FlightAware ADS-B
Fri 02:42:19 AM 35.2680 142.7980 74° East 543 625 24,300  Level FlightAware ADS-B
Fri 02:43:07 AM 35.2960 142.9190 74° East 543 625 24,300  Level FlightAware ADS-B
Fri 02:43:44 AM 35.3180 143.0120 74° East 543 625 24,300  Level FlightAware ADS-B
Fri 02:44:21 AM 35.3400 143.1050 74° East 543 625 24,300  Level FlightAware ADS-B
Fri 02:45:09 AM 35.3680 143.2260 74° East 543 625 24,300 56 Level FlightAware ADS-B
Fri 02:47:00 AM 35.6080 143.3790 27° Northeast  Level Estimated
Fri 02:48:00 AM 35.7377 143.4620 27° Northeast  Level Estimated
Fri 02:49:00 AM 35.8673 143.5453 28° Northeast  Level Estimated
Fri 02:50:00 AM 35.9968 143.6290 28° Northeast  Level Estimated
Fri 02:51:00 AM 36.1263 143.7128 28° Northeast  Level Estimated
Fri 02:52:00 AM 36.2557 143.7970 28° Northeast  Level Estimated
Fri 02:53:00 AM 36.3851 143.8814 28° Northeast  Level Estimated
Fri 02:54:00 AM 36.5144 143.9662 28° Northeast  Level Estimated
Fri 02:55:00 AM 36.6437 144.0512 28° Northeast  Level Estimated
Fri 02:56:00 AM 36.7729 144.1364 28° Northeast  Level Estimated
Fri 02:57:00 AM 36.9025 144.2224 28° Northeast  Level Estimated
Fri 02:58:00 AM 37.0321 144.3086 28° Northeast  Level Estimated
Fri 02:59:00 AM 37.1617 144.3951 28° Northeast  Level Estimated
Fri 03:00:00 AM 37.2911 144.4819 28° Northeast  Level Estimated
Fri 03:01:00 AM 37.4205 144.5690 28° Northeast  Level Estimated
Fri 03:02:00 AM 37.5499 144.6564 28° Northeast  Level Estimated
Fri 03:03:00 AM 37.6792 144.7442 28° Northeast  Level Estimated
Fri 03:04:00 AM 37.8084 144.8322 28° Northeast  Level Estimated
Fri 03:05:00 AM 37.9375 144.9205 28° Northeast  Level Estimated
Fri 03:06:00 AM 38.0666 145.0092 28° Northeast  Level Estimated
Fri 03:07:00 AM 38.1956 145.0981 28° Northeast  Level Estimated
Fri 03:08:00 AM 38.3246 145.1874 29° Northeast  Level Estimated
Fri 03:09:00 AM 38.4535 145.2770 29° Northeast  Level Estimated
Fri 03:10:00 AM 38.5823 145.3669 29° Northeast  Level Estimated
Fri 03:11:00 AM 38.7110 145.4571 29° Northeast  Level Estimated
Fri 03:12:00 AM 38.8397 145.5477 29° Northeast  Level Estimated
Fri 03:13:00 AM 38.9683 145.6386 29° Northeast  Level Estimated
Fri 03:14:00 AM 39.0968 145.7298 29° Northeast  Level Estimated
Fri 03:15:00 AM 39.2253 145.8213 29° Northeast  Level Estimated
Fri 03:16:00 AM 39.3537 145.9132 29° Northeast  Level Estimated
Fri 03:17:00 AM 39.4820 146.0055 29° Northeast  Level Estimated
Fri 03:18:00 AM 39.6102 146.0980 29° Northeast  Level Estimated
Fri 03:19:00 AM 39.7384 146.1909 29° Northeast  Level Estimated
Fri 03:20:00 AM 39.8665 146.2842 29° Northeast  Level Estimated
Fri 03:21:00 AM 39.9945 146.3778 29° Northeast  Level Estimated
Fri 03:22:00 AM 40.1225 146.4718 29° Northeast  Level Estimated
Fri 03:23:00 AM 40.2503 146.5661 29° Northeast  Level Estimated
Fri 03:24:00 AM 40.3781 146.6607 29° Northeast  Level Estimated
Fri 03:25:00 AM 40.5058 146.7558 29° Northeast  Level Estimated
Fri 03:26:00 AM 40.6335 146.8512 30° Northeast  Level Estimated
Fri 03:27:00 AM 40.7610 146.9469 30° Northeast  Level Estimated
Fri 03:28:00 AM 40.8885 147.0430 30° Northeast  Level Estimated
Fri 03:29:00 AM 41.0159 147.1395 30° Northeast  Level Estimated
Fri 03:30:00 AM 41.1432 147.2364 30° Northeast  Level Estimated
Fri 03:31:00 AM 41.2705 147.3336 30° Northeast  Level Estimated
Fri 03:32:00 AM 41.3976 147.4312 30° Northeast  Level Estimated
Fri 03:33:00 AM 41.5247 147.5293 30° Northeast  Level Estimated
Fri 03:34:00 AM 41.6517 147.6277 30° Northeast  Level Estimated
Fri 03:35:00 AM 41.7786 147.7264 30° Northeast  Level Estimated
Fri 03:36:00 AM 41.9054 147.8256 30° Northeast  Level Estimated
Fri 03:37:00 AM 42.0327 147.9256 30° Northeast  Level Estimated
Fri 03:38:00 AM 42.1598 148.0260 30° Northeast  Level Estimated
Fri 03:39:00 AM 42.2869 148.1268 30° Northeast  Level Estimated
Fri 03:40:00 AM 42.4139 148.2279 30° Northeast  Level Estimated
Fri 03:41:00 AM 42.5408 148.3295 31° Northeast  Level Estimated
Fri 03:42:00 AM 42.6676 148.4316 31° Northeast  Level Estimated
Fri 03:43:00 AM 42.7944 148.5340 31° Northeast  Level Estimated
Fri 03:44:00 AM 42.9210 148.6369 31° Northeast  Level Estimated
Fri 03:45:00 AM 43.0475 148.7401 31° Northeast  Level Estimated
Fri 03:46:00 AM 43.1740 148.8439 31° Northeast  Level Estimated
Fri 03:47:00 AM 43.3003 148.9480 31° Northeast  Level Estimated
Fri 03:48:00 AM 43.4266 149.0526 31° Northeast  Level Estimated
Fri 03:49:00 AM 43.5528 149.1576 31° Northeast  Level Estimated
Fri 03:50:00 AM 43.6788 149.2630 31° Northeast  Level Estimated
Fri 03:51:00 AM 43.8048 149.3689 31° Northeast  Level Estimated
Fri 03:52:00 AM 43.9307 149.4753 31° Northeast  Level Estimated
Fri 03:53:00 AM 44.0564 149.5820 31° Northeast  Level Estimated
Fri 03:54:00 AM 44.1821 149.6893 31° Northeast  Level Estimated
Fri 03:55:00 AM 44.3077 149.7970 32° Northeast  Level Estimated
Fri 03:56:00 AM 44.4332 149.9051 32° Northeast  Level Estimated
Fri 03:57:00 AM 44.5585 150.0138 32° Northeast  Level Estimated
Fri 03:58:00 AM 44.6838 150.1229 32° Northeast  Level Estimated
Fri 03:59:00 AM 44.8089 150.2324 32° Northeast  Level Estimated
Fri 04:00:00 AM 44.9340 150.3425 32° Northeast  Level Estimated
Fri 04:01:00 AM 45.0589 150.4530 32° Northeast  Level Estimated
Fri 04:02:00 AM 45.1838 150.5640 32° Northeast  Level Estimated
Fri 04:03:00 AM 45.3085 150.6755 32° Northeast  Level Estimated
Fri 04:04:00 AM 45.4331 150.7875 32° Northeast  Level Estimated
Fri 04:05:00 AM 45.5576 150.9000 32° Northeast  Level Estimated
Fri 04:06:00 AM 45.6820 151.0130 32° Northeast  Level Estimated
Fri 04:07:00 AM 45.8063 151.1265 32° Northeast  Level Estimated
Fri 04:08:00 AM 45.9305 151.2405 33° Northeast  Level Estimated
Fri 04:09:00 AM 46.0546 151.3550 33° Northeast  Level Estimated
Fri 04:10:00 AM 46.1785 151.4700 33° Northeast  Level Estimated
Fri 04:11:00 AM 46.3024 151.5856 33° Northeast  Level Estimated
Fri 04:12:00 AM 46.4261 151.7016 33° Northeast  Level Estimated
Fri 04:13:00 AM 46.5497 151.8182 33° Northeast  Level Estimated
Fri 04:14:00 AM 46.6732 151.9353 33° Northeast  Level Estimated
Fri 04:15:00 AM 46.7965 152.0530 33° Northeast  Level Estimated
Fri 04:16:00 AM 46.9198 152.1712 33° Northeast  Level Estimated
Fri 04:17:00 AM 47.0429 152.2899 33° Northeast  Level Estimated
Fri 04:18:00 AM 47.1659 152.4092 33° Northeast  Level Estimated
Fri 04:19:00 AM 47.2892 152.5296 33° Northeast  Level Estimated
Fri 04:20:00 AM 47.4123 152.6503 34° Northeast  Level Estimated
Fri 04:21:00 AM 47.5353 152.7716 34° Northeast  Level Estimated
Fri 04:22:00 AM 47.6583 152.8937 34° Northeast  Level Estimated
Fri 04:23:00 AM 47.7812 153.0163 34° Northeast  Level Estimated
Fri 04:24:00 AM 47.9039 153.1395 34° Northeast  Level Estimated
Fri 04:25:00 AM 48.0265 153.2633 34° Northeast  Level Estimated
Fri 04:26:00 AM 48.1490 153.3877 34° Northeast  Level Estimated
Fri 04:27:00 AM 48.2713 153.5127 34° Northeast  Level Estimated
Fri 04:28:00 AM 48.3935 153.6383 34° Northeast  Level Estimated
Fri 04:29:00 AM 48.5156 153.7644 34° Northeast  Level Estimated
Fri 04:30:00 AM 48.6375 153.8912 34° Northeast  Level Estimated
Fri 04:31:00 AM 48.7593 154.0186 35° Northeast  Level Estimated
Fri 04:32:00 AM 48.8809 154.1467 35° Northeast  Level Estimated
Fri 04:33:00 AM 49.0024 154.2753 35° Northeast  Level Estimated
Fri 04:34:00 AM 49.1238 154.4046 35° Northeast  Level Estimated
Fri 04:35:00 AM 49.2450 154.5345 35° Northeast  Level Estimated
Fri 04:36:00 AM 49.3661 154.6650 35° Northeast  Level Estimated
Fri 04:37:00 AM 49.4870 154.7962 35° Northeast  Level Estimated
Fri 04:38:00 AM 49.6078 154.9281 35° Northeast  Level Estimated
Fri 04:39:00 AM 49.7284 155.0606 35° Northeast  Level Estimated
Fri 04:40:00 AM 49.8489 155.1937 35° Northeast  Level Estimated
Fri 04:41:00 AM 49.9692 155.3275 36° Northeast  Level Estimated
Fri 04:42:00 AM 50.0893 155.4620 36° Northeast  Level Estimated
Fri 04:43:00 AM 50.2093 155.5972 36° Northeast  Level Estimated
Fri 04:44:00 AM 50.3292 155.7331 36° Northeast  Level Estimated
Fri 04:45:00 AM 50.4489 155.8696 36° Northeast  Level Estimated
Fri 04:46:00 AM 50.5684 156.0068 36° Northeast  Level Estimated
Fri 04:47:00 AM 50.6878 156.1447 36° Northeast  Level Estimated
Fri 04:48:00 AM 50.8069 156.2834 36° Northeast  Level Estimated
Fri 04:49:00 AM 50.9260 156.4227 36° Northeast  Level Estimated
Fri 04:50:00 AM 51.0449 156.5628 37° Northeast  Level Estimated
Fri 04:51:00 AM 51.1636 156.7035 37° Northeast  Level Estimated
Fri 04:52:00 AM 51.2821 156.8450 37° Northeast  Level Estimated
Fri 04:53:00 AM 51.4005 156.9873 37° Northeast  Level Estimated
Fri 04:54:00 AM 51.5186 157.1302 37° Northeast  Level Estimated
Fri 04:55:00 AM 51.6367 157.2739 37° Northeast  Level Estimated
Fri 04:56:00 AM 51.7545 157.4184 37° Northeast  Level Estimated
Fri 04:57:00 AM 51.8721 157.5636 37° Northeast  Level Estimated
Fri 04:58:00 AM 51.9896 157.7096 37° Northeast  Level Estimated
Fri 04:59:00 AM 52.1069 157.8563 38° Northeast  Level Estimated
Fri 05:00:00 AM 52.2240 158.0038 38° Northeast  Level Estimated
Fri 05:01:00 AM 52.3410 158.1521 38° Northeast  Level Estimated
Fri 05:01:10 AM 42.9667 169.2833 86° East 536 617 32,000  Level Oakland Oceanic (ODAPS)
Fri 05:02:00 AM 52.4577 158.3012 38° Northeast  Level Estimated
Fri 05:03:00 AM 52.5742 158.4511 38° Northeast  Level Estimated
Fri 05:04:00 AM 52.6906 158.6017 38° Northeast  Level Estimated
Fri 05:05:00 AM 52.8068 158.7532 38° Northeast  Level Estimated
Fri 05:05:28 AM 43.0000 170.0000 79° East 531 611 32,000  Level Oakland Oceanic (ODAPS)
Fri 05:06:00 AM 52.9232 158.9061 38° Northeast  Level Estimated
Fri 05:07:00 AM 43.0860 170.6016 79° East 536 617 32,000  Level FlightAware Transoceanic
Fri 05:08:00 AM 43.1140 170.8025 79° East 536 617 32,000  Level FlightAware Transoceanic
Fri 05:09:00 AM 43.1416 171.0036 79° East 536 617 32,000  Level FlightAware Transoceanic
Fri 05:10:00 AM 43.1689 171.2049 80° East 536 617 32,000  Level FlightAware Transoceanic
Fri 05:11:00 AM 43.1921 171.3781 80° East 531 611 32,000  Level FlightAware Transoceanic
Fri 05:12:00 AM 43.2182 171.5757 80° East 531 611 32,000  Level FlightAware Transoceanic
Fri 05:13:00 AM 43.2439 171.7734 80° East 531 611 32,000  Level FlightAware Transoceanic
Fri 05:14:00 AM 43.2693 171.9713 80° East 531 611 32,000  Level FlightAware Transoceanic
Fri 05:15:00 AM 43.2944 172.1694 80° East 531 611 32,000  Level FlightAware Transoceanic
Fri 05:16:00 AM 43.3191 172.3676 80° East 531 611 32,000  Level FlightAware Transoceanic
Fri 05:17:00 AM 43.3435 172.5660 80° East 531 611 32,000  Level FlightAware Transoceanic
Fri 05:18:00 AM 43.3675 172.7646 81° East 531 611 32,000  Level FlightAware Transoceanic
Fri 05:19:00 AM 43.3912 172.9633 81° East 531 611 32,000  Level FlightAware Transoceanic
Fri 05:20:00 AM 43.4145 173.1622 81° East 531 611 32,000  Level FlightAware Transoceanic
Fri 05:21:00 AM 43.4375 173.3612 81° East 531 611 32,000  Level FlightAware Transoceanic
Fri 05:22:00 AM 43.4602 173.5603 81° East 531 611 32,000  Level FlightAware Transoceanic
Fri 05:23:00 AM 43.4825 173.7596 81° East 531 611 32,000  Level FlightAware Transoceanic
Fri 05:24:00 AM 43.5045 173.9591 81° East 531 611 32,000  Level FlightAware Transoceanic
Fri 05:25:00 AM 43.5261 174.1587 82° East 531 611 32,000  Level FlightAware Transoceanic
Fri 05:26:00 AM 43.5474 174.3584 82° East 531 611 32,000  Level FlightAware Transoceanic
Fri 05:27:00 AM 43.5683 174.5583 82° East 531 611 32,000  Level FlightAware Transoceanic
Fri 05:27:16 AM 43.5667 174.5333 82° East 529 609 32,000  Level Oakland Oceanic (ODAPS)
Fri 05:28:00 AM 43.5888 174.7583 82° East 531 611 32,000  Level FlightAware Transoceanic
Fri 05:29:00 AM 43.6091 174.9585 82° East 531 611 32,000  Level FlightAware Transoceanic
Fri 05:30:00 AM 43.6289 175.1588 82° East 531 611 32,000  Level FlightAware Transoceanic
Fri 05:31:00 AM 43.6485 175.3592 82° East 531 611 32,000  Level FlightAware Transoceanic
Fri 05:32:00 AM 43.6676 175.5598 83° East 531 611 32,000  Level FlightAware Transoceanic
Fri 05:33:00 AM 43.6854 175.7409 83° East 529 609 32,000  Level FlightAware Transoceanic
Fri 05:34:00 AM 43.7040 175.9427 83° East 529 609 32,000  Level FlightAware Transoceanic
Fri 05:35:00 AM 43.7222 176.1445 83° East 529 609 32,000  Level FlightAware Transoceanic
Fri 05:36:00 AM 43.7400 176.3465 83° East 529 609 32,000  Level FlightAware Transoceanic
Fri 05:37:00 AM 43.7575 176.5486 83° East 529 609 32,000  Level FlightAware Transoceanic
Fri 05:38:00 AM 43.7747 176.7507 83° East 529 609 32,000  Level FlightAware Transoceanic
Fri 05:39:00 AM 43.7914 176.9531 84° East 529 609 32,000  Level FlightAware Transoceanic
Fri 05:40:00 AM 43.8078 177.1555 84° East 529 609 32,000  Level FlightAware Transoceanic
Fri 05:41:00 AM 43.8239 177.3580 84° East 529 609 32,000  Level FlightAware Transoceanic
Fri 05:42:00 AM 43.8396 177.5607 84° East 529 609 32,000  Level FlightAware Transoceanic
Fri 05:43:00 AM 43.8549 177.7634 84° East 529 609 32,000  Level FlightAware Transoceanic
Fri 05:44:00 AM 43.8699 177.9663 84° East 529 609 32,000  Level FlightAware Transoceanic
Fri 05:45:00 AM 43.8846 178.1693 84° East 529 609 32,000  Level FlightAware Transoceanic
Fri 05:46:00 AM 43.8988 178.3723 85° East 529 609 32,000  Level FlightAware Transoceanic
Fri 05:47:00 AM 43.9127 178.5755 85° East 529 609 32,000  Level FlightAware Transoceanic
Fri 05:48:00 AM 43.9263 178.7787 85° East 529 609 32,000  Level FlightAware Transoceanic
Fri 05:49:00 AM 43.9395 178.9820 85° East 529 609 32,000  Level FlightAware Transoceanic
Fri 05:50:00 AM 43.9523 179.1855 85° East 529 609 32,000  Level FlightAware Transoceanic
Fri 05:51:00 AM 43.9648 179.3890 85° East 529 609 32,000  Level FlightAware Transoceanic
Fri 05:52:00 AM 43.9769 179.5926 85° East 529 609 32,000  Level FlightAware Transoceanic
Fri 05:53:00 AM 43.9886 179.7962 85° East 529 609 32,000  Level FlightAware Transoceanic
Fri 05:53:55 AM 44.0000 -180.0000 79° East 543 625 32,000  Level Oakland Oceanic (ODAPS)
Fri 05:54:00 AM 44.0000 -180.0000 79° East 529 609 32,000  Level FlightAware Transoceanic
Fri 05:54:12 AM 44.0000 -180.0000 79° East 538 619 32,000  Level Oakland Oceanic (ODAPS)
Fri 05:55:00 AM 44.0296 -179.7956 79° East 529 609 32,000  Level FlightAware Transoceanic
Fri 05:56:00 AM 44.0589 -179.5910 79° East 529 609 32,000  Level FlightAware Transoceanic
Fri 05:57:00 AM 44.0878 -179.3862 79° East 529 609 32,000  Level FlightAware Transoceanic
Fri 05:58:00 AM 44.1163 -179.1812 79° East 529 609 32,000  Level FlightAware Transoceanic
Fri 05:59:00 AM 44.1445 -178.9760 79° East 529 609 32,000  Level FlightAware Transoceanic
Fri 06:00:00 AM 44.1723 -178.7706 79° East 538 619 32,000  Level FlightAware Transoceanic
Fri 06:01:00 AM 44.1998 -178.5651 80° East 538 619 32,000  Level FlightAware Transoceanic
Fri 06:02:00 AM 44.2268 -178.3593 80° East 538 619 32,000  Level FlightAware Transoceanic
Fri 06:03:00 AM 44.2535 -178.1533 80° East 538 619 32,000  Level FlightAware Transoceanic
Fri 06:03:40 AM 44.2667 -178.0500 80° East 538 619 32,000  Level Oakland Oceanic (ODAPS)
Fri 06:04:00 AM 44.2799 -177.9472 80° East 538 619 32,000  Level FlightAware Transoceanic
Fri 06:05:00 AM 44.3058 -177.7409 80° East 538 619 32,000  Level FlightAware Transoceanic
Fri 06:06:00 AM 44.3314 -177.5344 80° East 538 619 32,000  Level FlightAware Transoceanic
Fri 06:07:00 AM 44.3566 -177.3277 80° East 538 619 32,000  Level FlightAware Transoceanic
Fri 06:08:00 AM 44.3815 -177.1208 81° East 538 619 32,000  Level FlightAware Transoceanic
Fri 06:09:00 AM 44.4161 -176.8259 81° East 538 619 32,000  Level FlightAware Transoceanic
Fri 06:10:00 AM 44.4397 -176.6213 81° East 538 619 32,000  Level FlightAware Transoceanic
Fri 06:11:00 AM 44.4630 -176.4165 81° East 538 619 32,000  Level FlightAware Transoceanic
Fri 06:12:00 AM 44.4859 -176.2115 81° East 538 619 32,000  Level FlightAware Transoceanic
Fri 06:13:00 AM 44.5084 -176.0065 81° East 538 619 32,000  Level FlightAware Transoceanic
Fri 06:14:00 AM 44.5306 -175.8012 81° East 538 619 32,000  Level FlightAware Transoceanic
Fri 06:15:00 AM 44.5524 -175.5958 82° East 538 619 32,000  Level FlightAware Transoceanic
Fri 06:16:00 AM 44.5738 -175.3902 82° East 538 619 32,000  Level FlightAware Transoceanic
Fri 06:17:00 AM 44.5949 -175.1845 82° East 538 619 32,000  Level FlightAware Transoceanic
Fri 06:18:00 AM 44.6156 -174.9786 82° East 538 619 32,000  Level FlightAware Transoceanic
Fri 06:19:00 AM 44.6359 -174.7726 82° East 538 619 32,000  Level FlightAware Transoceanic
Fri 06:20:00 AM 44.6558 -174.5665 82° East 538 619 32,000 638 Level FlightAware Transoceanic
Fri 06:20:34 AM 44.6667 -174.4833 82° East 546 628 33,000  Climbing Oakland Oceanic (ODAPS)
Fri 06:21:00 AM 44.6754 -174.3602 82° East 538 619 32,000 -698 Descending FlightAware Transoceanic
Fri 06:22:00 AM 44.6946 -174.1537 83° East 538 619 32,000  Level FlightAware Transoceanic
Fri 06:23:00 AM 44.7134 -173.9472 83° East 538 619 32,000  Level FlightAware Transoceanic
Fri 06:24:00 AM 44.7319 -173.7405 83° East 538 619 32,000  Level FlightAware Transoceanic
Fri 06:25:00 AM 44.7500 -173.5336 83° East 538 619 32,000 500 Level FlightAware Transoceanic
Fri 06:26:00 AM 44.7798 -173.2079 83° East 546 628 33,000 500 Climbing FlightAware Transoceanic
Fri 06:27:00 AM 44.7972 -172.9948 83° East 546 628 33,000  Level FlightAware Transoceanic
Fri 06:28:00 AM 44.8143 -172.7816 84° East 546 628 33,000  Level FlightAware Transoceanic
Fri 06:29:00 AM 44.8310 -172.5683 84° East 546 628 33,000  Level FlightAware Transoceanic
Fri 06:30:00 AM 44.8473 -172.3549 84° East 546 628 33,000  Level FlightAware Transoceanic
Fri 06:31:00 AM 44.8632 -172.1414 84° East 546 628 33,000  Level FlightAware Transoceanic
Fri 06:32:00 AM 44.8786 -171.9277 84° East 546 628 33,000  Level FlightAware Transoceanic
Fri 06:33:00 AM 44.8937 -171.7139 84° East 546 628 33,000  Level FlightAware Transoceanic
Fri 06:34:00 AM 44.9084 -171.5000 85° East 546 628 33,000  Level FlightAware Transoceanic
Fri 06:35:00 AM 44.9227 -171.2861 85° East 546 628 33,000  Level FlightAware Transoceanic
Fri 06:36:00 AM 44.9366 -171.0720 85° East 546 628 33,000  Level FlightAware Transoceanic
Fri 06:37:00 AM 44.9501 -170.8578 85° East 546 628 33,000  Level FlightAware Transoceanic
Fri 06:38:00 AM 44.9632 -170.6435 85° East 546 628 33,000  Level FlightAware Transoceanic
Fri 06:39:00 AM 44.9758 -170.4291 85° East 546 628 33,000  Level FlightAware Transoceanic
Fri 06:40:00 AM 44.9881 -170.2146 85° East 546 628 33,000  Level FlightAware Transoceanic
Fri 06:41:00 AM 45.0000 -170.0000 78° East 546 628 33,000  Level FlightAware Transoceanic
Fri 06:42:00 AM 45.0296 -169.7957 78° East 546 628 33,000  Level FlightAware Transoceanic
Fri 06:42:16 AM 45.0000 -170.0000 78° East 538 619 33,000  Level Oakland Oceanic (ODAPS)
Fri 06:43:00 AM 45.0589 -169.5913 79° East 546 628 33,000  Level FlightAware Transoceanic
Fri 06:44:00 AM 45.0878 -169.3866 79° East 546 628 33,000  Level FlightAware Transoceanic
Fri 06:45:00 AM 45.1163 -169.1817 79° East 546 628 33,000  Level FlightAware Transoceanic
Fri 06:46:00 AM 45.1445 -168.9767 79° East 546 628 33,000  Level FlightAware Transoceanic
Fri 06:47:00 AM 45.1723 -168.7714 79° East 546 628 33,000  Level FlightAware Transoceanic
Fri 06:47:16 AM 45.1500 -168.9000 79° East 533 613 33,000  Level Oakland Oceanic (ODAPS)
Fri 06:48:00 AM 45.1758 -168.7451 79° East 538 619 33,000  Level FlightAware Transoceanic
Fri 06:49:00 AM 45.2038 -168.5353 79° East 538 619 33,000  Level FlightAware Transoceanic
Fri 06:50:00 AM 45.2314 -168.3252 80° East 538 619 33,000  Level FlightAware Transoceanic
Fri 06:51:00 AM 45.2586 -168.1149 80° East 538 619 33,000  Level FlightAware Transoceanic
Fri 06:52:00 AM 45.2854 -167.9044 80° East 538 619 33,000  Level FlightAware Transoceanic
Fri 06:53:00 AM 45.3098 -167.6758 80° East 533 613 33,000  Level FlightAware Transoceanic
Fri 06:54:00 AM 45.3352 -167.4711 80° East 533 613 33,000  Level FlightAware Transoceanic
Fri 06:55:00 AM 45.3602 -167.2662 80° East 533 613 33,000  Level FlightAware Transoceanic
Fri 06:56:00 AM 45.3848 -167.0612 80° East 533 613 33,000  Level FlightAware Transoceanic
Fri 06:57:00 AM 45.4091 -166.8559 81° East 533 613 33,000  Level FlightAware Transoceanic
Fri 06:58:00 AM 45.4329 -166.6505 81° East 533 613 33,000  Level FlightAware Transoceanic
Fri 06:59:00 AM 45.4565 -166.4449 81° East 533 613 33,000  Level FlightAware Transoceanic
Fri 07:00:00 AM 45.4796 -166.2392 81° East 533 613 33,000  Level FlightAware Transoceanic
Fri 07:01:00 AM 45.5024 -166.0332 81° East 533 613 33,000  Level FlightAware Transoceanic
Fri 07:02:00 AM 45.5248 -165.8272 81° East 533 613 33,000  Level FlightAware Transoceanic
Fri 07:03:00 AM 45.5469 -165.6209 81° East 533 613 33,000  Level FlightAware Transoceanic
Fri 07:04:00 AM 45.5686 -165.4145 82° East 533 613 33,000  Level FlightAware Transoceanic
Fri 07:05:00 AM 45.5899 -165.2079 82° East 533 613 33,000  Level FlightAware Transoceanic
Fri 07:06:00 AM 45.6108 -165.0012 82° East 533 613 33,000  Level FlightAware Transoceanic
Fri 07:07:00 AM 45.6313 -164.7943 82° East 533 613 33,000  Level FlightAware Transoceanic
Fri 07:08:00 AM 45.6515 -164.5873 82° East 533 613 33,000  Level FlightAware Transoceanic
Fri 07:09:00 AM 45.6713 -164.3801 82° East 533 613 33,000  Level FlightAware Transoceanic
Fri 07:10:00 AM 45.6908 -164.1728 82° East 533 613 33,000  Level FlightAware Transoceanic
Fri 07:11:00 AM 45.7098 -163.9654 83° East 533 613 33,000  Level FlightAware Transoceanic
Fri 07:12:00 AM 45.7285 -163.7578 83° East 533 613 33,000  Level FlightAware Transoceanic
Fri 07:13:00 AM 45.7468 -163.5500 83° East 533 613 33,000  Level FlightAware Transoceanic
Fri 07:13:56 AM 45.7667 -163.3833 83° East 532 612 33,000  Level Oakland Oceanic (ODAPS)
Fri 07:14:00 AM 45.7647 -163.3421 83° East 533 613 33,000  Level FlightAware Transoceanic
Fri 07:15:00 AM 45.7823 -163.1341 83° East 533 613 33,000  Level FlightAware Transoceanic
Fri 07:16:00 AM 45.7995 -162.9260 83° East 533 613 33,000  Level FlightAware Transoceanic
Fri 07:17:00 AM 45.8162 -162.7177 83° East 533 613 33,000  Level FlightAware Transoceanic
Fri 07:18:00 AM 45.8327 -162.5094 84° East 533 613 33,000  Level FlightAware Transoceanic
Fri 07:19:00 AM 45.8487 -162.3008 84° East 533 613 33,000  Level FlightAware Transoceanic
Fri 07:20:00 AM 45.8659 -162.1180 84° East 532 612 33,000  Level FlightAware Transoceanic
Fri 07:21:00 AM 45.8810 -161.9066 84° East 532 612 33,000  Level FlightAware Transoceanic
Fri 07:22:00 AM 45.8958 -161.6952 84° East 532 612 33,000  Level FlightAware Transoceanic
Fri 07:23:00 AM 45.9102 -161.4837 84° East 532 612 33,000  Level FlightAware Transoceanic
Fri 07:24:00 AM 45.9242 -161.2720 85° East 532 612 33,000  Level FlightAware Transoceanic
Fri 07:25:00 AM 45.9378 -161.0603 85° East 532 612 33,000  Level FlightAware Transoceanic
Fri 07:26:00 AM 45.9510 -160.8484 85° East 532 612 33,000  Level FlightAware Transoceanic
Fri 07:27:00 AM 45.9639 -160.6364 85° East 532 612 33,000  Level FlightAware Transoceanic
Fri 07:28:00 AM 45.9763 -160.4244 85° East 532 612 33,000  Level FlightAware Transoceanic
Fri 07:29:00 AM 45.9883 -160.2122 85° East 532 612 33,000  Level FlightAware Transoceanic
Fri 07:30:00 AM 46.0000 -160.0000 70° East 532 612 33,000  Level FlightAware Transoceanic
Fri 07:30:20 AM 46.0000 -160.0000 70° East 567 652 33,000  Level Oakland Oceanic (ODAPS)
Fri 07:31:00 AM 46.0562 -159.7763 70° East 532 612 33,000  Level FlightAware Transoceanic
Fri 07:32:00 AM 46.1119 -159.5522 70° East 532 612 33,000  Level FlightAware Transoceanic
Fri 07:33:00 AM 46.1672 -159.3276 71° East 532 612 33,000  Level FlightAware Transoceanic
Fri 07:34:00 AM 46.2221 -159.1026 71° East 532 612 33,000  Level FlightAware Transoceanic
Fri 07:35:00 AM 46.2765 -158.8771 71° East 532 612 33,000  Level FlightAware Transoceanic
Fri 07:36:00 AM 46.3161 -158.7115 71° East 567 652 33,000  Level FlightAware Transoceanic
Fri 07:37:00 AM 46.3674 -158.4953 71° East 567 652 33,000  Level FlightAware Transoceanic
Fri 07:38:00 AM 46.4182 -158.2787 71° East 567 652 33,000  Level FlightAware Transoceanic
Fri 07:39:00 AM 46.4687 -158.0617 71° East 567 652 33,000  Level FlightAware Transoceanic
Fri 07:40:00 AM 46.5187 -157.8443 72° East 567 652 33,000 202 Level FlightAware Transoceanic
Fri 07:40:29 AM 46.5333 -157.7667 72° East 578 665 33,300  Climbing Oakland Oceanic (ODAPS)
Fri 07:41:00 AM 46.5683 -157.6265 72° East 567 652 33,000 -198 Descending FlightAware Transoceanic
Fri 07:42:00 AM 46.6175 -157.4083 72° East 567 652 33,000  Level FlightAware Transoceanic
Fri 07:43:00 AM 46.6663 -157.1897 72° East 567 652 33,000  Level FlightAware Transoceanic
Fri 07:44:00 AM 46.7147 -156.9707 72° East 567 652 33,000  Level FlightAware Transoceanic
Fri 07:45:00 AM 46.7627 -156.7514 72° East 567 652 33,000 150 Level FlightAware Transoceanic
Fri 07:46:00 AM 46.8299 -156.4282 73° East 578 665 33,300 150 Climbing FlightAware Transoceanic
Fri 07:47:00 AM 46.8778 -156.2037 73° East 578 665 33,300  Level FlightAware Transoceanic
Fri 07:48:00 AM 46.9252 -155.9788 73° East 578 665 33,300  Level FlightAware Transoceanic
Fri 07:49:00 AM 46.9722 -155.7535 73° East 578 665 33,300  Level FlightAware Transoceanic
Fri 07:50:00 AM 47.0188 -155.5278 73° East 578 665 33,300  Level FlightAware Transoceanic
Fri 07:51:00 AM 47.0649 -155.3018 73° East 578 665 33,300  Level FlightAware Transoceanic
Fri 07:52:00 AM 47.1106 -155.0753 74° East 578 665 33,300  Level FlightAware Transoceanic
Fri 07:53:00 AM 47.1558 -154.8484 74° East 578 665 33,300  Level FlightAware Transoceanic
Fri 07:54:00 AM 47.2006 -154.6212 74° East 578 665 33,300  Level FlightAware Transoceanic
Fri 07:55:00 AM 47.2450 -154.3936 74° East 578 665 33,300  Level FlightAware Transoceanic
Fri 07:56:00 AM 47.2889 -154.1656 74° East 578 665 33,300  Level FlightAware Transoceanic
Fri 07:57:00 AM 47.3323 -153.9372 74° East 578 665 33,300  Level FlightAware Transoceanic
Fri 07:58:00 AM 47.3753 -153.7085 75° East 578 665 33,300  Level FlightAware Transoceanic
Fri 07:59:00 AM 47.4178 -153.4794 75° East 578 665 33,300  Level FlightAware Transoceanic
Fri 08:00:00 AM 47.4599 -153.2499 75° East 578 665 33,300  Level FlightAware Transoceanic
Fri 08:01:00 AM 47.5015 -153.0200 75° East 578 665 33,300  Level FlightAware Transoceanic
Fri 08:02:00 AM 47.5426 -152.7898 75° East 578 665 33,300  Level FlightAware Transoceanic
Fri 08:03:00 AM 47.5833 -152.5592 75° East 578 665 33,300  Level FlightAware Transoceanic
Fri 08:04:00 AM 47.6235 -152.3283 76° East 578 665 33,300  Level FlightAware Transoceanic
Fri 08:05:00 AM 47.6633 -152.0970 76° East 578 665 33,300  Level FlightAware Transoceanic
Fri 08:06:00 AM 47.7026 -151.8653 76° East 578 665 33,300  Level FlightAware Transoceanic
Fri 08:07:00 AM 47.7414 -151.6334 76° East 578 665 33,300 545 Level FlightAware Transoceanic
Fri 08:07:17 AM 47.7333 -151.6333 76° East 617 710 34,000  Climbing Oakland Oceanic (ODAPS)
Fri 08:08:00 AM 47.7798 -151.4010 76° East 578 665 33,300 -408 Descending FlightAware Transoceanic
Fri 08:09:00 AM 47.8176 -151.1684 76° East 578 665 33,300  Level FlightAware Transoceanic
Fri 08:10:00 AM 47.8551 -150.9353 77° East 578 665 33,300  Level FlightAware Transoceanic
Fri 08:11:00 AM 47.8920 -150.7020 77° East 578 665 33,300  Level FlightAware Transoceanic
Fri 08:12:00 AM 47.9285 -150.4683 77° East 578 665 33,300 350 Level FlightAware Transoceanic
Fri 08:13:00 AM 47.9633 -150.2343 77° East 617 710 34,000 350 Climbing FlightAware Transoceanic
Fri 08:14:00 AM 48.0000 -150.0000 78° East 617 710 34,000  Level FlightAware Transoceanic
Fri 08:14:10 AM 48.0000 -150.0000 78° East 624 718 34,000  Level Oakland Oceanic (ODAPS)
Fri 08:15:00 AM 48.0373 -149.7425 78° East 617 710 34,000  Level FlightAware Transoceanic
Fri 08:16:00 AM 48.0740 -149.4847 78° East 617 710 34,000  Level FlightAware Transoceanic
Fri 08:17:00 AM 48.1101 -149.2265 78° East 617 710 34,000  Level FlightAware Transoceanic
Fri 08:18:00 AM 48.1457 -148.9679 78° East 617 710 34,000  Level FlightAware Transoceanic
Fri 08:19:00 AM 48.1806 -148.7089 79° East 617 710 34,000  Level FlightAware Transoceanic
Fri 08:20:00 AM 48.2150 -148.4497 79° East 624 718 34,000  Level FlightAware Transoceanic
Fri 08:21:00 AM 48.2488 -148.1900 79° East 624 718 34,000  Level FlightAware Transoceanic
Fri 08:22:00 AM 48.2820 -147.9301 79° East 624 718 34,000  Level FlightAware Transoceanic
Fri 08:23:00 AM 48.3147 -147.6698 79° East 624 718 34,000  Level FlightAware Transoceanic
Fri 08:24:00 AM 48.3467 -147.4091 80° East 624 718 34,000  Level FlightAware Transoceanic
Fri 08:25:00 AM 48.3782 -147.1482 80° East 624 718 34,000  Level FlightAware Transoceanic
Fri 08:26:00 AM 48.4090 -146.8869 80° East 624 718 34,000  Level FlightAware Transoceanic
Fri 08:27:00 AM 48.4393 -146.6253 80° East 624 718 34,000  Level FlightAware Transoceanic
Fri 08:28:00 AM 48.4689 -146.3634 80° East 624 718 34,000  Level FlightAware Transoceanic
Fri 08:29:00 AM 48.4980 -146.1012 81° East 624 718 34,000  Level FlightAware Transoceanic
Fri 08:30:00 AM 48.5265 -145.8387 81° East 624 718 34,000  Level FlightAware Transoceanic
Fri 08:31:00 AM 48.5544 -145.5759 81° East 624 718 34,000  Level FlightAware Transoceanic
Fri 08:32:00 AM 48.5817 -145.3128 81° East 624 718 34,000  Level FlightAware Transoceanic
Fri 08:33:00 AM 48.6084 -145.0495 81° East 624 718 34,000  Level FlightAware Transoceanic
Fri 08:33:55 AM 48.6333 -144.8167 82° East 624 718 34,000  Level Oakland Oceanic (ODAPS)
Fri 08:34:00 AM 48.6345 -144.7858 82° East 624 718 34,000  Level FlightAware Transoceanic
Fri 08:35:00 AM 48.6599 -144.5219 82° East 624 718 34,000  Level FlightAware Transoceanic
Fri 08:36:00 AM 48.6848 -144.2577 82° East 624 718 34,000  Level FlightAware Transoceanic
Fri 08:37:00 AM 48.7091 -143.9933 82° East 624 718 34,000  Level FlightAware Transoceanic
Fri 08:38:00 AM 48.7328 -143.7286 82° East 624 718 34,000  Level FlightAware Transoceanic
Fri 08:39:00 AM 48.7558 -143.4637 83° East 624 718 34,000  Level FlightAware Transoceanic
Fri 08:40:00 AM 48.7778 -143.2192 83° East 624 718 34,000  Level FlightAware Transoceanic
Fri 08:41:00 AM 48.7998 -142.9521 83° East 624 718 34,000  Level FlightAware Transoceanic
Fri 08:42:00 AM 48.8211 -142.6847 83° East 624 718 34,000  Level FlightAware Transoceanic
Fri 08:43:00 AM 48.8418 -142.4171 83° East 624 718 34,000  Level FlightAware Transoceanic
Fri 08:44:00 AM 48.8618 -142.1494 84° East 624 718 34,000  Level FlightAware Transoceanic
Fri 08:45:00 AM 48.8813 -141.8814 84° East 624 718 34,000  Level FlightAware Transoceanic
Fri 08:46:00 AM 48.9001 -141.6132 84° East 624 718 34,000  Level FlightAware Transoceanic
Fri 08:47:00 AM 48.9183 -141.3448 84° East 624 718 34,000  Level FlightAware Transoceanic
Fri 08:48:00 AM 48.9359 -141.0762 84° East 624 718 34,000  Level FlightAware Transoceanic
Fri 08:49:00 AM 48.9529 -140.8074 85° East 624 718 34,000  Level FlightAware Transoceanic
Fri 08:50:00 AM 48.9692 -140.5384 85° East 624 718 34,000  Level FlightAware Transoceanic
Fri 08:51:00 AM 48.9849 -140.2693 85° East 624 718 34,000  Level FlightAware Transoceanic
Fri 08:52:00 AM 49.0000 -140.0000 87° East 624 718 34,000  Level FlightAware Transoceanic
Fri 08:53:00 AM 49.0082 -139.7400 87° East 624 718 34,000  Level FlightAware Transoceanic
Fri 08:54:00 AM 49.0158 -139.4800 88° East 624 718 34,000  Level FlightAware Transoceanic
Fri 08:54:11 AM 49.0000 -140.0000 87° East 625 719 34,000  Level Oakland Oceanic (ODAPS)
Fri 08:55:00 AM 49.0229 -139.2199 88° East 624 718 34,000  Level FlightAware Transoceanic
Fri 08:56:00 AM 49.0293 -138.9597 88° East 624 718 34,000  Level FlightAware Transoceanic
Fri 08:57:00 AM 49.0351 -138.6994 88° East 624 718 34,000  Level FlightAware Transoceanic
Fri 08:58:00 AM 49.0404 -138.4391 88° East 624 718 34,000  Level FlightAware Transoceanic
Fri 08:59:00 AM 49.0451 -138.1788 89° East 624 718 34,000  Level FlightAware Transoceanic
Fri 09:00:00 AM 49.0492 -137.9184 89° East 625 719 34,000  Level FlightAware Transoceanic
Fri 09:00:33 AM 49.0500 -137.7667 89° East 622 716 34,000  Level Oakland Oceanic (ODAPS)
Fri 09:01:00 AM 49.0527 -137.6579 89° East 625 719 34,000  Level FlightAware Transoceanic
Fri 09:02:00 AM 49.0557 -137.3974 89° East 625 719 34,000  Level FlightAware Transoceanic
Fri 09:03:00 AM 49.0580 -137.1369 89° East 625 719 34,000  Level FlightAware Transoceanic
Fri 09:04:00 AM 49.0598 -136.8764 90° East 625 719 34,000  Level FlightAware Transoceanic
Fri 09:05:00 AM 49.0610 -136.6158 90° East 625 719 34,000  Level FlightAware Transoceanic
Fri 09:06:00 AM 49.0606 -136.2469 90° East 622 716 34,000  Level FlightAware Transoceanic
Fri 09:07:00 AM 49.0605 -135.9936 90° East 622 716 34,000  Level FlightAware Transoceanic
Fri 09:08:00 AM 49.0598 -135.7402 90° East 622 716 34,000  Level FlightAware Transoceanic
Fri 09:09:00 AM 49.0585 -135.4869 91° East 622 716 34,000  Level FlightAware Transoceanic
Fri 09:10:00 AM 49.0567 -135.2336 91° East 622 716 34,000  Level FlightAware Transoceanic
Fri 09:11:00 AM 49.0543 -134.9804 91° East 622 716 34,000  Level FlightAware Transoceanic
Fri 09:12:00 AM 49.0513 -134.7271 91° East 622 716 34,000  Level FlightAware Transoceanic
Fri 09:13:00 AM 49.0479 -134.4739 91° East 622 716 34,000  Level FlightAware Transoceanic
Fri 09:14:00 AM 49.0438 -134.2207 91° East 622 716 34,000  Level FlightAware Transoceanic
Fri 09:15:00 AM 49.0392 -133.9676 92° East 622 716 34,000  Level FlightAware Transoceanic
Fri 09:16:00 AM 49.0341 -133.7145 92° East 622 716 34,000  Level FlightAware Transoceanic
Fri 09:17:00 AM 49.0284 -133.4615 92° East 622 716 34,000  Level FlightAware Transoceanic
Fri 09:18:00 AM 49.0221 -133.2085 92° East 622 716 34,000  Level FlightAware Transoceanic
Fri 09:19:00 AM 49.0153 -132.9556 92° East 622 716 34,000  Level FlightAware Transoceanic
Fri 09:20:00 AM 49.0079 -132.7027 93° East 622 716 34,000  Level FlightAware Transoceanic
Fri 09:21:00 AM 49.0000 -132.4500 92° East 622 716 34,000  Level FlightAware Transoceanic
Fri 09:22:00 AM 48.9933 -132.1748 92° East 622 716 34,000 667 Level FlightAware Transoceanic
Fri 09:22:30 AM 48.9667 -132.0000 93° East 320 368 35,000  Climbing Vancouver Center
Fri 09:23:00 AM 48.9860 -131.8996 92° East 622 716 34,000  Descending FlightAware Transoceanic
Fri 09:23:30 AM 48.9667 -131.7333 90° East 600 690 35,000  Climbing Vancouver Center
Fri 09:24:00 AM 48.9779 -131.6246 93° East 622 716 34,000  Descending FlightAware Transoceanic
Fri 09:24:30 AM 48.9667 -131.4667 90° East 620 713 35,000  Climbing Vancouver Center
Fri 09:25:00 AM 48.9693 -131.3496 93° East 622 716 34,000  Descending FlightAware Transoceanic
Fri 09:25:30 AM 48.9500 -131.2000 95° East 620 713 35,000  Climbing Vancouver Center
Fri 09:26:00 AM 48.9600 -131.0748 93° East 622 716 34,000  Descending FlightAware Transoceanic
Fri 09:26:30 AM 48.9500 -130.9500 90° East 620 713 35,000 667 Climbing Vancouver Center
Fri 09:27:00 AM 48.9517 -130.8447 93° East  Level FlightAware Approximate
Fri 09:27:30 AM 48.9333 -130.6833 95° East 610 702 35,000  Level Vancouver Center
Fri 09:28:30 AM 48.9333 -130.4333 90° East 610 702 35,000  Level Vancouver Center
Fri 09:29:30 AM 48.9167 -130.1500 95° East 620 713 35,000  Level Vancouver Center
Fri 09:30:30 AM 48.9000 -129.9167 96° East 610 702 35,000  Level Vancouver Center
Fri 09:37:41 AM 48.8400 -128.0250 96° East 610 702 35,000  Level FlightAware ADS-B
Fri 09:38:36 AM 48.8380 -127.8030 91° East 611 703 35,000  Level FlightAware ADS-B
Fri 09:39:16 AM 48.8360 -127.6320 91° East 611 703 35,000  Level FlightAware ADS-B
Fri 09:39:56 AM 48.8320 -127.4570 92° East 611 703 35,000  Level FlightAware ADS-B
Fri 09:40:51 AM 48.8270 -127.2140 92° East 611 703 35,000 470 Level FlightAware ADS-B
Fri 09:41:51 AM 48.8210 -126.9660 92° East 611 703 35,900 1,029 Climbing FlightAware ADS-B
Fri 09:42:36 AM 48.8160 -126.7700 92° East 605 696 36,800 776 Climbing FlightAware ADS-B
Fri 09:43:16 AM 48.8120 -126.6010 92° East 606 697 37,000 150 Climbing FlightAware ADS-B
Fri 09:43:56 AM 48.8080 -126.4320 92° East 605 696 37,000  Level FlightAware ADS-B
Fri 09:44:41 AM 48.8030 -126.2380 92° East 605 696 37,000  Level FlightAware ADS-B
Fri 09:45:18 AM 48.7980 -126.0900 93° East 605 696 37,000  Level FlightAware ADS-B
Fri 09:46:06 AM 48.7920 -125.8790 92° East 605 696 37,000  Level FlightAware ADS-B
Fri 09:46:48 AM 48.7870 -125.7180 93° East 606 697 37,000  Level FlightAware ADS-B
Fri 09:47:31 AM 48.7810 -125.5270 93° East 608 700 37,000  Level FlightAware ADS-B
Fri 09:48:11 AM 48.7750 -125.3540 93° East 607 699 37,000  Level FlightAware ADS-B
Fri 09:48:51 AM 48.7690 -125.1800 93° East 606 697 37,000  Level FlightAware ADS-B
Fri 09:49:36 AM 48.7620 -124.9900 93° East 606 697 37,000  Level FlightAware ADS-B
Fri 09:50:16 AM 48.7550 -124.8210 94° East 604 695 37,000  Level FlightAware ADS-B
Fri 09:50:58 AM 48.7480 -124.6530 94° East 601 692 37,000  Level FlightAware ADS-B
Fri 09:51:41 AM 48.7400 -124.4650 94° East 600 690 37,000  Level FlightAware ADS-B
Fri 09:52:26 AM 48.7320 -124.2770 94° East 600 690 37,000  Level FlightAware ADS-B
Fri 09:53:06 AM 48.7240 -124.1100 94° East 601 692 37,000  Level FlightAware ADS-B
Fri 09:53:46 AM 48.7170 -123.9420 94° East 602 693 37,000  Level FlightAware ADS-B
Fri 09:54:31 AM 48.7080 -123.7540 94° East 603 694 37,000  Level FlightAware ADS-B
Fri 09:55:11 AM 48.6990 -123.5860 95° East 604 695 37,000  Level FlightAware ADS-B
Fri 09:55:51 AM 48.6910 -123.4220 94° East 604 695 37,000  Level FlightAware ADS-B
Fri 09:56:36 AM 48.6810 -123.2280 94° East 606 697 37,000  Level FlightAware ADS-B
Fri 09:57:16 AM 48.6720 -123.0630 95° East 609 701 37,000  Level FlightAware ADS-B
Fri 09:58:01 AM 48.6610 -122.8690 95° East 610 702 37,000  Level FlightAware ADS-B
Fri 09:58:41 AM 48.6510 -122.7040 95° East 610 702 37,000  Level FlightAware ADS-B
Fri 09:59:21 AM 48.6430 -122.5300 94° East 609 701 37,000  Level FlightAware ADS-B
Fri 10:00:06 AM 48.6400 -122.3430 91° East 610 702 37,000  Level FlightAware ADS-B
Fri 10:00:46 AM 48.6360 -122.1690 92° East 609 701 37,000  Level FlightAware ADS-B
Fri 10:01:31 AM 48.6320 -121.9870 92° East 608 700 37,000  Level FlightAware ADS-B
Fri 10:02:11 AM 48.6270 -121.8140 92° East 608 700 37,000  Level FlightAware ADS-B
Fri 10:02:52 AM 48.6210 -121.6410 93° East 606 697 37,000  Level FlightAware ADS-B
Fri 10:03:36 AM 48.6150 -121.4640 93° East 605 696 37,000  Level FlightAware ADS-B
Fri 10:04:20 AM 48.6080 -121.2670 93° East 600 690 37,000  Level FlightAware ADS-B
Fri 10:05:02 AM 48.6020 -121.0950 93° East 598 688 37,000  Level FlightAware ADS-B
Fri 10:05:43 AM 48.5950 -120.9210 93° East 594 684 37,000  Level FlightAware ADS-B
Fri 10:06:25 AM 48.5880 -120.7430 93° East 593 682 37,000  Level FlightAware ADS-B
Fri 10:07:05 AM 48.5820 -120.5830 93° East 587 676 37,000  Level FlightAware ADS-B
Fri 10:07:50 AM 48.5740 -120.4000 94° East 584 672 37,000  Level FlightAware ADS-B
Fri 10:08:28 AM 48.5690 -120.2680 93° East 584 672 37,000  Level FlightAware ADS-B
Fri 10:09:12 AM 48.5600 -120.0740 94° East 576 663 37,000  Level FlightAware ADS-B
Fri 10:09:54 AM 48.5520 -119.8980 94° East 576 663 37,000  Level FlightAware ADS-B
Fri 10:10:50 AM 48.5420 -119.6810 94° East 581 669 37,000  Level FlightAware ADS-B
Fri 10:11:45 AM 48.5320 -119.4700 94° East 582 670 37,000  Level FlightAware ADS-B
Fri 10:12:46 AM 48.5220 -119.2600 94° East 582 670 37,000  Level FlightAware ADS-B
Fri 10:13:21 AM 48.5160 -119.1390 94° East 582 670 37,000  Level FlightAware ADS-B
Fri 10:14:22 AM 48.5070 -118.9290 94° East 582 670 37,000  Level FlightAware ADS-B
Fri 10:14:58 AM 48.5010 -118.8050 94° East 582 670 37,000  Level FlightAware ADS-B
Fri 10:15:44 AM 48.4930 -118.6460 94° East 582 670 37,000  Level FlightAware ADS-B
Fri 10:16:21 AM 48.4880 -118.5190 93° East 582 670 37,000  Level FlightAware ADS-B
Fri 10:17:11 AM 48.4800 -118.3470 94° East 582 670 37,000  Level FlightAware ADS-B
Fri 10:17:47 AM 48.4740 -118.2230 94° East 582 670 37,000  Level FlightAware ADS-B
Fri 10:18:22 AM 48.4680 -118.1020 94° East 582 670 37,000  Level FlightAware ADS-B
Fri 10:18:58 AM 48.4620 -117.9780 94° East 582 670 37,000  Level FlightAware ADS-B
Fri 10:19:46 AM 48.4550 -117.8130 94° East 582 670 37,000  Level FlightAware ADS-B
Fri 10:20:23 AM 48.4490 -117.6860 94° East 582 670 37,000  Level FlightAware ADS-B
Fri 10:21:07 AM 48.3969 -117.2044 94° East 586 674 37,000  Level Seattle Center
Fri 10:21:37 AM 48.3667 -117.0333 105° East 590 679 37,000  Level Vancouver Center
Fri 10:22:08 AM 48.3792 -116.9583 76° East 589 678 37,000  Level Seattle Center
Fri 10:23:08 AM 48.3617 -116.7133 96° East 588 677 37,000  Level Seattle Center
Fri 10:24:09 AM 48.3428 -116.4686 97° East 588 677 37,000  Level Seattle Center
Fri 10:29:46 AM 48.2310 -115.1130 97° East 37,000  Level FlightAware ADS-B
Fri 10:30:26 AM 48.2160 -114.9480 98° East 572 658 37,000  Level FlightAware ADS-B
Fri 10:31:07 AM 48.2020 -114.7910 98° East 571 657 37,000  Level FlightAware ADS-B
Fri 10:32:01 AM 48.1820 -114.5710 98° East 573 659 37,000  Level FlightAware ADS-B
Fri 10:32:31 AM 48.1710 -114.4570 98° East 572 658 37,000  Level FlightAware ADS-B
Fri 10:33:11 AM 48.1550 -114.2900 98° East 565 650 37,000  Level FlightAware ADS-B
Fri 10:33:51 AM 48.1410 -114.1390 98° East 563 648 37,000  Level FlightAware ADS-B
Fri 10:34:36 AM 48.1240 -113.9660 98° East 564 649 37,000  Level FlightAware ADS-B
Fri 10:35:21 AM 48.1070 -113.7970 99° East 564 649 37,000  Level FlightAware ADS-B
Fri 10:36:03 AM 48.0940 -113.6560 98° East 564 649 37,000  Level FlightAware ADS-B
Fri 10:36:40 AM 48.0820 -113.5340 98° East 564 649 37,000  Level FlightAware ADS-B
Fri 10:37:56 AM 48.0450 -113.1990 99° East 561 646 37,000  Level FlightAware ADS-B
Fri 10:38:36 AM 48.0300 -113.0530 99° East 561 646 37,000  Level FlightAware ADS-B
Fri 10:39:16 AM 48.0140 -112.9000 99° East 563 648 37,000  Level FlightAware ADS-B
Fri 10:40:01 AM 47.9940 -112.7190 99° East 563 648 37,000  Level FlightAware ADS-B
Fri 10:40:56 AM 47.9720 -112.5200 99° East 559 643 37,000  Level FlightAware ADS-B
Fri 10:41:51 AM 47.9470 -112.3000 100° East 556 640 37,000  Level FlightAware ADS-B
Fri 10:42:52 AM 47.9270 -112.0980 98° East 556 640 37,000  Level FlightAware ADS-B
Fri 10:43:28 AM 47.9160 -111.9810 98° East 556 640 37,000  Level FlightAware ADS-B
Fri 10:44:12 AM 47.8850 -111.7720 102° East 37,000  Level FlightAware ADS-B
Fri 10:44:45 AM 47.8750 -111.6900 102° East 555 639 37,000  Level Salt Lake Center
Fri 10:45:47 AM 47.8481 -111.4631 100° East 554 638 37,000  Level Salt Lake Center
Fri 10:46:49 AM 47.8147 -111.1883 100° East 553 636 37,000  Level Salt Lake Center
Fri 10:47:51 AM 47.7864 -110.9625 100° East 550 633 37,000  Level Salt Lake Center
Fri 10:48:52 AM 47.7583 -110.7383 100° East 548 631 37,000  Level Salt Lake Center
Fri 10:49:54 AM 47.7303 -110.5164 101° East 547 629 37,000  Level Salt Lake Center
Fri 10:50:56 AM 47.6997 -110.2975 102° East 543 625 37,000  Level Salt Lake Center
Fri 10:51:58 AM 47.6703 -110.0792 101° East 542 624 37,000  Level Salt Lake Center
Fri 10:53:00 AM 47.6397 -109.8608 102° East 541 623 37,000  Level Salt Lake Center
Fri 10:54:02 AM 47.6072 -109.5969 100° East 543 625 37,000  Level Salt Lake Center
Fri 10:55:04 AM 47.5769 -109.3797 102° East 541 623 37,000  Level Salt Lake Center
Fri 10:56:06 AM 47.5450 -109.1614 102° East 543 625 37,000  Level Salt Lake Center
Fri 10:57:08 AM 47.5144 -108.9456 102° East 539 620 37,000  Level Salt Lake Center
Fri 10:58:11 AM 47.4828 -108.7289 102° East 541 623 37,000  Level Salt Lake Center
Fri 10:59:13 AM 47.4508 -108.5122 102° East 540 621 37,000  Level Salt Lake Center
Fri 11:00:15 AM 47.4172 -108.2972 103° East 540 621 37,000  Level Salt Lake Center
Fri 11:01:17 AM 47.3772 -108.0367 103° East 539 620 37,000  Level Salt Lake Center
Fri 11:02:19 AM 47.3453 -107.8300 103° East 540 621 37,000  Level Salt Lake Center
Fri 11:03:21 AM 47.3086 -107.5919 103° East 536 617 37,000  Level Salt Lake Center
Fri 11:04:23 AM 47.2758 -107.3872 103° East 536 617 37,000  Level Salt Lake Center
Fri 11:05:25 AM 47.2375 -107.1517 103° East 532 612 37,000  Level Salt Lake Center
Fri 11:06:27 AM 47.2044 -106.9497 103° East 531 611 37,000  Level Salt Lake Center
Fri 11:07:29 AM 47.1642 -106.7136 104° East 532 612 37,000  Level Salt Lake Center
Fri 11:08:31 AM 47.1314 -106.5106 103° East 533 613 37,000  Level Salt Lake Center
Fri 11:09:33 AM 47.0969 -106.3086 104° East 532 612 37,000  Level Salt Lake Center
Fri 11:10:35 AM 47.0611 -106.1064 105° East 532 612 37,000  Level Salt Lake Center
Fri 11:11:37 AM 47.0183 -105.8561 104° East 530 610 37,000  Level Salt Lake Center
Fri 11:12:39 AM 46.9808 -105.6475 105° East 531 611 37,000  Level Salt Lake Center
Fri 11:13:41 AM 46.9442 -105.4394 104° East 532 612 37,000  Level Salt Lake Center
Fri 11:14:43 AM 46.9047 -105.2297 105° East 535 616 37,000  Level Salt Lake Center
Fri 11:15:45 AM 46.8664 -105.0211 105° East 535 616 37,000  Level Salt Lake Center
Fri 11:16:47 AM 46.8189 -104.7711 105° East 535 616 37,000  Level Salt Lake Center
Fri 11:17:49 AM 46.7819 -104.5669 105° East 531 611 37,000  Level Salt Lake Center
Fri 11:18:51 AM 46.7433 -104.3608 105° East 530 610 37,000  Level Salt Lake Center
Fri 11:19:53 AM 46.7050 -104.1581 105° East 526 605 37,000  Level Salt Lake Center
Fri 11:20:55 AM 46.6642 -103.9514 106° East 530 610 37,000  Level Salt Lake Center
Fri 11:21:57 AM 46.6247 -103.7444 105° East 533 613 37,000  Level Salt Lake Center
Fri 11:22:48 AM 46.5861 -103.5447 106° East 531 611 37,000  Level Minneapolis Center
Fri 11:23:50 AM 46.5450 -103.3403 106° East 531 611 37,000  Level Minneapolis Center
Fri 11:24:52 AM 46.5036 -103.1344 106° East 532 612 37,000  Level Minneapolis Center
Fri 11:25:54 AM 46.4622 -102.9308 106° East 531 611 37,000  Level Minneapolis Center
Fri 11:26:56 AM 46.4117 -102.6875 107° East 528 608 37,000  Level Minneapolis Center
Fri 11:27:59 AM 46.3728 -102.4789 105° East 532 612 37,000  Level Minneapolis Center
Fri 11:29:01 AM 46.3311 -102.2761 107° East 533 613 37,000  Level Minneapolis Center
Fri 11:30:03 AM 46.2878 -102.0758 107° East 529 609 37,000  Level Minneapolis Center
Fri 11:31:05 AM 46.2408 -101.8808 109° East 524 603 37,000  Level Minneapolis Center
Fri 11:32:07 AM 46.1922 -101.6831 109° East 522 601 37,000  Level Minneapolis Center
Fri 11:33:09 AM 46.1408 -101.4389 107° East 525 604 37,000  Level Minneapolis Center
Fri 11:34:11 AM 46.1036 -101.2325 105° East 527 606 37,000  Level Minneapolis Center
Fri 11:35:13 AM 46.0803 -101.0189 99° East 530 610 37,000  Level Minneapolis Center
Fri 11:36:15 AM 46.0511 -100.8111 101° East 528 608 37,000  Level Minneapolis Center
Fri 11:37:17 AM 46.0231 -100.6031 101° East 528 608 37,000  Level Minneapolis Center
Fri 11:38:19 AM 45.9936 -100.3958 101° East 527 606 37,000  Level Minneapolis Center
Fri 11:39:21 AM 45.9642 -100.1889 101° East 527 606 37,000  Level Minneapolis Center
Fri 11:40:23 AM 45.9281 -99.9389 102° East 529 609 37,000  Level Minneapolis Center
Fri 11:41:25 AM 45.8975 -99.7322 102° East 527 606 37,000  Level Minneapolis Center
Fri 11:42:27 AM 45.8672 -99.5231 102° East 529 609 37,000  Level Minneapolis Center
Fri 11:43:29 AM 45.8353 -99.3169 102° East 529 609 37,000  Level Minneapolis Center
Fri 11:49:15 AM 45.6430 -98.0980 102° East 531 611 37,000  Level FlightAware ADS-B
Fri 11:49:55 AM 45.6220 -97.9650 103° East 530 610 37,000  Level FlightAware ADS-B
Fri 11:50:35 AM 45.6000 -97.8320 103° East 531 611 37,000  Level FlightAware ADS-B
Fri 11:51:17 AM 45.5750 -97.6820 103° East 532 612 37,000  Level FlightAware ADS-B
Fri 11:52:00 AM 45.5500 -97.5390 104° East 533 613 37,000  Level FlightAware ADS-B
Fri 11:52:42 AM 45.5250 -97.3920 104° East 534 615 37,000  Level FlightAware ADS-B
Fri 11:53:20 AM 45.5030 -97.2620 104° East 537 618 37,000  Level FlightAware ADS-B
Fri 11:54:08 AM 45.4750 -97.0970 104° East 538 619 37,000  Level FlightAware ADS-B
Fri 11:54:46 AM 45.4520 -96.9690 104° East 538 619 37,000  Level FlightAware ADS-B
Fri 11:55:28 AM 45.4270 -96.8250 104° East 538 619 37,000  Level FlightAware ADS-B
Fri 11:56:06 AM 45.4040 -96.6910 104° East 539 620 37,000  Level FlightAware ADS-B
Fri 11:56:48 AM 45.3790 -96.5500 104° East 540 621 37,000  Level FlightAware ADS-B
Fri 11:57:38 AM 45.3470 -96.3750 105° East 541 623 37,000  Level FlightAware ADS-B
Fri 11:58:19 AM 45.3220 -96.2370 104° East 543 625 37,000  Level FlightAware ADS-B
Fri 11:59:02 AM 45.2950 -96.0850 104° East 544 626 37,000  Level FlightAware ADS-B
Fri 11:59:44 AM 45.2680 -95.9410 105° East 544 626 37,000  Level FlightAware ADS-B
Fri 12:00:20 PM 45.2450 -95.8200 105° East 542 624 37,000  Level FlightAware ADS-B
Fri 12:01:04 PM 45.2170 -95.6690 105° East 539 620 37,000  Level FlightAware ADS-B
Fri 12:01:48 PM 45.1900 -95.5230 105° East 539 620 37,000  Level FlightAware ADS-B
Fri 12:02:32 PM 45.1600 -95.3660 105° East 538 619 37,000  Level FlightAware ADS-B
Fri 12:03:12 PM 45.1340 -95.2300 105° East 537 618 37,000  Level FlightAware ADS-B
Fri 12:03:56 PM 45.1060 -95.0850 105° East 536 617 37,000  Level FlightAware ADS-B
Fri 12:04:36 PM 45.0800 -94.9500 105° East 537 618 37,000  Level FlightAware ADS-B
Fri 12:05:19 PM 45.0520 -94.8040 105° East 535 616 37,000  Level FlightAware ADS-B
Fri 12:06:00 PM 45.0240 -94.6630 106° East 533 613 37,000  Level FlightAware ADS-B
Fri 12:06:42 PM 44.9970 -94.5260 106° East 532 612 37,000  Level FlightAware ADS-B
Fri 12:07:22 PM 44.9700 -94.3930 106° East 530 610 37,000  Level FlightAware ADS-B
Fri 12:08:08 PM 44.9390 -94.2370 106° East 528 608 37,000  Level FlightAware ADS-B
Fri 12:08:50 PM 44.9110 -94.1010 106° East 528 608 37,000  Level FlightAware ADS-B
Fri 12:09:30 PM 44.8840 -93.9660 106° East 527 606 37,000  Level FlightAware ADS-B
Fri 12:10:14 PM 44.8540 -93.8240 107° East 527 606 37,000  Level FlightAware ADS-B
Fri 12:10:54 PM 44.8270 -93.6920 106° East 529 609 37,000  Level FlightAware ADS-B
Fri 12:11:34 PM 44.8000 -93.5600 106° East 530 610 37,000  Level FlightAware ADS-B
Fri 12:12:14 PM 44.7720 -93.4280 107° East 531 611 37,000  Level FlightAware ADS-B
Fri 12:13:02 PM 44.7380 -93.2660 106° East 530 610 37,000  Level FlightAware ADS-B
Fri 12:13:44 PM 44.7090 -93.1310 107° East 531 611 37,000  Level FlightAware ADS-B
Fri 12:14:24 PM 44.6820 -93.0020 106° East 532 612 37,000  Level FlightAware ADS-B
Fri 12:15:06 PM 44.6500 -92.8570 107° East 531 611 37,000  Level FlightAware ADS-B
Fri 12:15:46 PM 44.6220 -92.7280 107° East 531 611 37,000  Level FlightAware ADS-B
Fri 12:16:38 PM 44.5850 -92.5570 107° East 532 612 37,000  Level FlightAware ADS-B
Fri 12:17:08 PM 44.5630 -92.4550 107° East 532 612 37,000  Level FlightAware ADS-B
Fri 12:17:48 PM 44.5340 -92.3260 107° East 533 613 37,000  Level FlightAware ADS-B
Fri 12:18:26 PM 44.5060 -92.1980 107° East 532 612 37,000  Level FlightAware ADS-B
Fri 12:19:12 PM 44.4730 -92.0500 107° East 533 613 37,000  Level FlightAware ADS-B
Fri 12:19:54 PM 44.4410 -91.9120 108° East 531 611 37,000  Level FlightAware ADS-B
Fri 12:20:36 PM 44.4100 -91.7710 107° East 530 610 37,000  Level FlightAware ADS-B
Fri 12:21:18 PM 44.3780 -91.6340 108° East 530 610 37,000  Level FlightAware ADS-B
Fri 12:21:58 PM 44.3480 -91.5040 108° East 530 610 37,000  Level FlightAware ADS-B
Fri 12:22:42 PM 44.3160 -91.3640 108° East 530 610 37,000  Level FlightAware ADS-B
Fri 12:23:22 PM 44.2850 -91.2300 108° East 531 611 37,000  Level FlightAware ADS-B
Fri 12:24:06 PM 44.2520 -91.0900 108° East 532 612 37,000  Level FlightAware ADS-B
Fri 12:24:48 PM 44.2190 -90.9500 108° East 531 611 37,000  Level FlightAware ADS-B
Fri 12:25:28 PM 44.1900 -90.8240 108° East 529 609 37,000  Level FlightAware ADS-B
Fri 12:26:10 PM 44.1580 -90.6920 109° East 527 606 37,000  Level FlightAware ADS-B
Fri 12:26:50 PM 44.1270 -90.5630 108° East 525 604 37,000  Level FlightAware ADS-B
Fri 12:27:31 PM 44.0940 -90.4260 108° East 523 602 37,000  Level FlightAware ADS-B
Fri 12:28:20 PM 44.0560 -90.2710 109° East 520 598 37,000  Level FlightAware ADS-B
Fri 12:28:59 PM 44.0270 -90.1510 109° East 517 595 37,000  Level FlightAware ADS-B
Fri 12:29:43 PM 43.9930 -90.0130 109° East 516 594 37,000  Level FlightAware ADS-B
Fri 12:30:23 PM 43.9620 -89.8850 109° East 516 594 37,000  Level FlightAware ADS-B
Fri 12:31:06 PM 43.9290 -89.7530 109° East 516 594 37,000  Level FlightAware ADS-B
Fri 12:31:47 PM 43.8970 -89.6220 109° East 517 595 37,000  Level FlightAware ADS-B
Fri 12:32:29 PM 43.8640 -89.4930 109° East 519 597 37,000  Level FlightAware ADS-B
Fri 12:33:13 PM 43.8290 -89.3550 109° East 520 598 37,000  Level FlightAware ADS-B
Fri 12:33:53 PM 43.7970 -89.2260 109° East 521 600 37,000  Level FlightAware ADS-B
Fri 12:34:33 PM 43.7650 -89.1040 110° East 521 600 37,000  Level FlightAware ADS-B
Fri 12:35:17 PM 43.7290 -88.9630 109° East 522 601 37,000  Level FlightAware ADS-B
Fri 12:36:01 PM 43.6930 -88.8240 110° East 524 603 37,000  Level FlightAware ADS-B
Fri 12:36:41 PM 43.6610 -88.7010 110° East 527 606 37,000  Level FlightAware ADS-B
Fri 12:37:24 PM 43.6250 -88.5640 110° East 529 609 37,000  Level FlightAware ADS-B
Fri 12:38:01 PM 43.5950 -88.4490 110° East 512 589 37,000  Level FlightAware ADS-B
Fri 12:38:49 PM 43.5600 -88.3120 109° East 504 580 37,000  Level FlightAware ADS-B
Fri 12:39:29 PM 43.5250 -88.1830 110° East 503 579 37,000  Level FlightAware ADS-B
Fri 12:40:13 PM 43.4900 -88.0540 110° East 502 578 37,000  Level FlightAware ADS-B
Fri 12:40:55 PM 43.4560 -87.9260 110° East 500 575 37,000  Level FlightAware ADS-B
Fri 12:41:33 PM 43.4250 -87.8100 110° East 499 574 37,000  Level FlightAware ADS-B
Fri 12:42:18 PM 43.3890 -87.6760 110° East 497 572 37,000  Level FlightAware ADS-B
Fri 12:42:59 PM 43.3560 -87.5580 111° Southeast 494 568 37,000  Level FlightAware ADS-B
Fri 12:43:35 PM 43.3280 -87.4560 111° Southeast 493 567 37,000  Level FlightAware ADS-B
Fri 12:44:21 PM 43.2910 -87.3210 111° Southeast 491 565 37,000  Level FlightAware ADS-B
Fri 12:45:02 PM 43.2570 -87.1990 111° Southeast 489 563 37,000  Level FlightAware ADS-B
Fri 12:45:44 PM 43.2300 -87.1010 111° Southeast 487 560 37,000  Level FlightAware ADS-B
Fri 12:46:24 PM 43.1910 -86.9600 111° Southeast 484 557 37,000  Level FlightAware ADS-B
Fri 12:47:02 PM 43.1670 -86.8710 110° East 484 557 37,000  Level FlightAware ADS-B
Fri 12:47:46 PM 43.1250 -86.7290 112° Southeast 483 556 37,000  Level FlightAware ADS-B
Fri 12:48:26 PM 43.0930 -86.6120 110° East 482 555 37,000  Level FlightAware ADS-B
Fri 12:49:11 PM 43.0570 -86.4840 111° Southeast 482 555 37,000  Level FlightAware ADS-B
Fri 12:49:52 PM 43.0240 -86.3710 112° Southeast 482 555 37,000  Level FlightAware ADS-B
Fri 12:50:36 PM 42.9880 -86.2470 112° Southeast 480 552 37,000  Level FlightAware ADS-B
Fri 12:51:17 PM 42.9540 -86.1290 111° Southeast 478 550 37,000  Level FlightAware ADS-B
Fri 12:51:54 PM 42.9250 -86.0280 111° Southeast 478 550 37,000  Level FlightAware ADS-B
Fri 12:52:39 PM 42.8880 -85.8990 111° Southeast 479 551 37,000  Level FlightAware ADS-B
Fri 12:53:22 PM 42.8520 -85.7780 112° Southeast 480 552 37,000  Level FlightAware ADS-B
Fri 12:54:05 PM 42.8170 -85.6570 111° Southeast 481 554 37,000  Level FlightAware ADS-B
Fri 12:54:47 PM 42.7820 -85.5390 112° Southeast 481 554 37,000  Level FlightAware ADS-B
Fri 12:55:26 PM 42.7500 -85.4320 112° Southeast 482 555 37,000  Level FlightAware ADS-B
Fri 12:56:10 PM 42.7130 -85.3090 112° Southeast 482 555 37,000  Level FlightAware ADS-B
Fri 12:56:52 PM 42.6790 -85.1900 111° Southeast 487 560 37,000  Level FlightAware ADS-B
Fri 12:57:34 PM 42.6590 -85.0620 102° East 501 577 37,000  Level FlightAware ADS-B
Fri 12:58:15 PM 42.6450 -84.9320 98° East 502 578 37,000  Level FlightAware ADS-B
Fri 12:58:59 PM 42.6300 -84.7950 98° East 500 575 37,000  Level FlightAware ADS-B
Fri 12:59:36 PM 42.6200 -84.6820 97° East 504 580 37,000  Level FlightAware ADS-B
Fri 01:00:21 PM 42.6100 -84.5410 95° East 503 579 37,000  Level FlightAware ADS-B
Fri 01:01:03 PM 42.5990 -84.4060 96° East 503 579 37,000  Level FlightAware ADS-B
Fri 01:01:40 PM 42.5900 -84.2900 96° East 503 579 37,000  Level FlightAware ADS-B
Fri 01:02:24 PM 42.5790 -84.1620 97° East 503 579 37,000  Level FlightAware ADS-B
Fri 01:03:05 PM 42.5670 -84.0240 97° East 502 578 37,000  Level FlightAware ADS-B
Fri 01:03:53 PM 42.5540 -83.8790 97° East 517 595 37,000  Level FlightAware ADS-B
Fri 01:04:42 PM 42.5410 -83.7250 96° East 529 609 37,000  Level FlightAware ADS-B
Fri 01:05:32 PM 42.5260 -83.5580 97° East 527 606 37,000  Level FlightAware ADS-B
Fri 01:06:05 PM 42.5180 -83.4690 97° East 527 606 37,000  Level FlightAware ADS-B
Fri 01:06:50 PM 42.5050 -83.3250 97° East 528 608 37,000  Level FlightAware ADS-B
Fri 01:07:36 PM 42.4900 -83.1640 97° East 530 610 37,000  Level FlightAware ADS-B
Fri 01:08:26 PM 42.4740 -83.0000 97° East 530 610 37,000  Level FlightAware ADS-B
Fri 01:09:08 PM 42.4610 -82.8550 97° East 530 610 37,000  Level FlightAware ADS-B
Fri 01:09:57 PM 42.4440 -82.6870 98° East 530 610 37,000  Level FlightAware ADS-B
Fri 01:10:39 PM 42.4330 -82.5690 97° East 529 609 37,000  Level FlightAware ADS-B
Fri 01:11:34 PM 42.4150 -82.3890 98° East 528 608 37,000  Level FlightAware ADS-B
Fri 01:12:11 PM 42.4040 -82.2780 98° East 527 606 37,000  Level FlightAware ADS-B
Fri 01:13:07 PM 42.3860 -82.1120 98° East 526 605 37,000  Level FlightAware ADS-B
Fri 01:13:52 PM 42.3670 -81.9240 98° East 525 604 37,000  Level FlightAware ADS-B
Fri 01:14:34 PM 42.3520 -81.7840 98° East 524 603 37,000  Level FlightAware ADS-B
Fri 01:15:34 PM 42.3330 -81.6030 98° East 522 601 37,000  Level FlightAware ADS-B
Fri 01:16:10 PM 42.3190 -81.4740 98° East 522 601 37,000  Level FlightAware ADS-B
Fri 01:16:56 PM 42.3040 -81.3360 98° East 522 601 37,000  Level FlightAware ADS-B
Fri 01:17:34 PM 42.2910 -81.2170 98° East 521 600 37,000  Level FlightAware ADS-B
Fri 01:18:17 PM 42.2730 -81.0630 99° East 521 600 37,000  Level FlightAware ADS-B
Fri 01:19:02 PM 42.2580 -80.9250 98° East 522 601 37,000  Level FlightAware ADS-B
Fri 01:19:42 PM 42.2430 -80.7890 98° East 523 602 37,000  Level FlightAware ADS-B
Fri 01:20:38 PM 42.2220 -80.6160 99° East 522 601 37,000  Level FlightAware ADS-B
Fri 01:21:22 PM 42.2050 -80.4690 99° East 521 600 37,000  Level FlightAware ADS-B
Fri 01:22:02 PM 42.1900 -80.3440 99° East 521 600 37,000  Level FlightAware ADS-B
Fri 01:22:47 PM 42.1730 -80.2000 99° East 520 598 37,000  Level FlightAware ADS-B
Fri 01:23:27 PM 42.1570 -80.0680 99° East 521 600 37,000  Level FlightAware ADS-B
Fri 01:24:07 PM 42.1420 -79.9440 99° East 521 600 37,000  Level FlightAware ADS-B
Fri 01:24:47 PM 42.1260 -79.8160 100° East 520 598 37,000  Level FlightAware ADS-B
Fri 01:25:35 PM 42.1060 -79.6570 100° East 520 598 37,000  Level FlightAware ADS-B
Fri 01:26:18 PM 42.0890 -79.5170 99° East 520 598 37,000  Level FlightAware ADS-B
Fri 01:27:00 PM 42.0720 -79.3890 100° East 517 595 37,000  Level FlightAware ADS-B
Fri 01:27:35 PM 42.0450 -79.2950 111° Southeast 496 571 37,000  Level FlightAware ADS-B
Fri 01:28:22 PM 41.9800 -79.1880 129° Southeast 453 521 37,000  Level FlightAware ADS-B
Fri 01:29:02 PM 41.9230 -79.1070 133° Southeast 453 521 37,000  Level FlightAware ADS-B
Fri 01:29:42 PM 41.8670 -79.0240 132° Southeast 451 519 37,000  Level FlightAware ADS-B
Fri 01:30:27 PM 41.8060 -78.9320 132° Southeast 457 526 37,000  Level FlightAware ADS-B
Fri 01:30:57 PM 41.7790 -78.8570 116° Southeast 478 550 37,000  Level FlightAware ADS-B
Fri 01:31:37 PM 41.7760 -78.7320 92° East 508 585 37,000  Level FlightAware ADS-B
Fri 01:32:22 PM 41.7890 -78.5980 83° East 509 586 37,000  Level FlightAware ADS-B
Fri 01:33:02 PM 41.8040 -78.4610 82° East 509 586 37,000  Level FlightAware ADS-B
Fri 01:33:47 PM 41.8190 -78.3240 82° East 507 583 37,000  Level FlightAware ADS-B
Fri 01:34:22 PM 41.8290 -78.2240 82° East 508 585 37,000  Level FlightAware ADS-B
Fri 01:35:07 PM 41.8440 -78.0700 83° East 511 588 37,000  Level FlightAware ADS-B
Fri 01:35:48 PM 41.8560 -77.9450 83° East 511 588 37,000  Level FlightAware ADS-B
Fri 01:36:32 PM 41.8530 -77.8130 92° East 489 563 37,000  Level FlightAware ADS-B
Fri 01:37:12 PM 41.8320 -77.7270 108° East 481 554 37,000  Level FlightAware ADS-B
Fri 01:37:52 PM 41.7960 -77.5900 109° East 480 552 37,000  Level FlightAware ADS-B
Fri 01:38:37 PM 41.7610 -77.4590 110° East 477 549 37,000  Level FlightAware ADS-B
Fri 01:39:17 PM 41.7310 -77.3480 110° East 474 545 37,000  Level FlightAware ADS-B
Fri 01:39:46 PM 41.7075 -77.2598 110° East 474 545 37,000 -212 Level FlightAware ADS-B
Fri 01:40:42 PM 41.6680 -77.1140 110° East 470 541 36,700 -448 Descending FlightAware ADS-B
Fri 01:40:53 PM 41.6583 -77.0760 109° East 468 539 36,500 -682 Descending FlightAware ADS-B
Fri 01:41:26 PM 41.6345 -76.9898 110° East 464 534 36,200 -656 Descending FlightAware ADS-B
Fri 01:41:57 PM 41.6120 -76.9048 109° East 456 525 35,800 -787 Descending FlightAware ADS-B
Fri 01:42:27 PM 41.5901 -76.8260 110° East 454 522 35,400 -1,031 Descending FlightAware ADS-B
Fri 01:43:01 PM 41.5661 -76.7388 110° East 457 526 34,700 -1,219 Descending FlightAware ADS-B
Fri 01:43:31 PM 41.5438 -76.6566 110° East 461 531 34,100 -1,161 Descending FlightAware ADS-B
Fri 01:44:03 PM 41.5201 -76.5708 110° East 463 533 33,500 -1,108 Descending FlightAware ADS-B
Fri 01:44:36 PM 41.4960 -76.4825 110° East 463 533 32,900 -1,406 Descending FlightAware ADS-B
Fri 01:45:07 PM 41.4726 -76.3986 110° East 474 545 32,000 -1,742 Descending FlightAware ADS-B
Fri 01:45:38 PM 41.4487 -76.3130 110° East 478 550 31,100 -984 Descending FlightAware ADS-B
Fri 01:46:08 PM 41.4252 -76.2300 111° Southeast 482 555 31,000 -581 Descending FlightAware ADS-B
Fri 01:46:40 PM 41.4006 -76.1410 110° East 480 552 30,500 -1,200 Descending FlightAware ADS-B
Fri 01:47:13 PM 41.3751 -76.0500 110° East 477 549 29,700 -1,238 Descending FlightAware ADS-B
Fri 01:47:43 PM 41.3519 -75.9680 111° Southeast 471 542 29,200 -968 Descending FlightAware ADS-B
Fri 01:48:15 PM 41.3281 -75.8827 110° East 460 529 28,700 -871 Descending FlightAware ADS-B
Fri 01:48:45 PM 41.3055 -75.8040 111° Southeast 452 520 28,300 -1,065 Descending FlightAware ADS-B
Fri 01:49:17 PM 41.2820 -75.7222 111° Southeast 440 506 27,600 -1,548 Descending FlightAware ADS-B
Fri 01:49:47 PM 41.2578 -75.6492 114° Southeast 430 495 26,700 -1,957 Descending FlightAware ADS-B
Fri 01:50:03 PM 41.2439 -75.6112 116° Southeast 427 491 26,100 -2,043 Descending FlightAware ADS-B
Fri 01:50:34 PM 41.2210 -75.5386 113° Southeast 425 489 25,100 -1,935 Descending FlightAware ADS-B
Fri 01:51:05 PM 41.1979 -75.4645 112° Southeast 420 483 24,100 -1,770 Descending FlightAware ADS-B
Fri 01:51:35 PM 41.1743 -75.3919 113° Southeast 415 478 23,300 -1,082 Descending FlightAware ADS-B
Fri 01:52:06 PM 41.1505 -75.3210 114° Southeast 406 467 23,000 -590 Descending FlightAware ADS-B
Fri 01:52:36 PM 41.1280 -75.2558 115° Southeast 379 436 22,700 -885 Descending FlightAware ADS-B
Fri 01:53:07 PM 41.1064 -75.1941 115° Southeast 363 418 22,100 -1,279 Descending FlightAware ADS-B
Fri 01:53:37 PM 41.0856 -75.1320 114° Southeast 356 410 21,400 -1,100 Descending FlightAware ADS-B
Fri 01:54:07 PM 41.0652 -75.0724 114° Southeast 355 409 21,000 -387 Descending FlightAware ADS-B
Fri 01:54:39 PM 41.0441 -75.0115 115° Southeast 351 404 21,000  Level FlightAware ADS-B
Fri 01:55:09 PM 41.0236 -74.9507 114° Southeast 350 403 21,000  Level FlightAware ADS-B
Fri 01:55:39 PM 41.0039 -74.8918 114° Southeast 352 405 21,000  Level FlightAware ADS-B
Fri 01:56:01 PM 40.9931 -74.8464 107° East 359 413 21,000  Level FlightAware ADS-B
Fri 01:56:20 PM 40.9872 -74.8071 101° East 364 419 21,000  Level FlightAware ADS-B
Fri 01:56:50 PM 40.9811 -74.7382 97° East 366 421 21,000  Level FlightAware ADS-B
Fri 01:57:00 PM 40.9803 -74.7157 93° East 370 426 21,000  Level FlightAware ADS-B
Fri 01:57:09 PM 40.9821 -74.6951 83° East 367 422 21,000  Level FlightAware ADS-B
Fri 01:57:15 PM 40.9848 -74.6816 75° East 380 437 21,000  Level FlightAware ADS-B
Fri 01:57:24 PM 40.9908 -74.6622 68° East 384 442 21,000  Level FlightAware ADS-B
Fri 01:57:31 PM 40.9973 -74.6479 59° Northeast 389 448 21,000  Level FlightAware ADS-B
Fri 01:58:02 PM 41.0294 -74.5876 55° Northeast 391 450 21,000  Level FlightAware ADS-B
Fri 01:58:32 PM 41.0621 -74.5298 53° Northeast 388 447 21,000  Level FlightAware ADS-B
Fri 01:59:07 PM 41.0983 -74.4649 53° Northeast 386 444 21,000  Level FlightAware ADS-B
Fri 01:59:17 PM 41.1074 -74.4424 62° Northeast 379 436 21,000 -818 Level FlightAware ADS-B
Fri 01:59:29 PM 41.1139 -74.4185 70° East 374 430 20,700 -1,500 Descending FlightAware ADS-B
Fri 01:59:41 PM 41.1169 -74.3896 82° East 366 421 20,400 -1,154 Descending FlightAware ADS-B
Fri 01:59:55 PM 41.1151 -74.3588 94° East 355 409 20,200 -720 Descending FlightAware ADS-B
Fri 02:00:06 PM 41.1107 -74.3361 104° East 347 399 20,100 -706 Descending FlightAware ADS-B
Fri 02:00:12 PM 41.1072 -74.3263 115° Southeast 343 395 20,000 -667 Descending FlightAware ADS-B
Fri 02:00:24 PM 41.0973 -74.3031 120° Southeast 333 383 19,900 -522 Descending FlightAware ADS-B
Fri 02:00:35 PM 41.0862 -74.2862 131° Southeast 323 372 19,800 -632 Descending FlightAware ADS-B
Fri 02:00:43 PM 41.0783 -74.2769 138° Southeast 319 367 19,700 -632 Descending FlightAware ADS-B
Fri 02:01:13 PM 41.0418 -74.2434 145° Southeast 311 358 19,400 -492 Descending FlightAware ADS-B
Fri 02:01:44 PM 41.0048 -74.2126 148° Southeast 311 358 19,200 -545 Descending FlightAware ADS-B
Fri 02:01:57 PM 40.9893 -74.1989 146° Southeast 312 359 19,000 -500 Descending FlightAware ADS-B
Fri 02:02:08 PM 40.9770 -74.1826 135° Southeast 320 368 19,000  Level FlightAware ADS-B
Fri 02:02:20 PM 40.9675 -74.1625 122° Southeast 331 381 19,000  Level FlightAware ADS-B
Fri 02:02:52 PM 40.9436 -74.1066 119° Southeast 338 389 19,000 -387 Level FlightAware ADS-B
Fri 02:03:22 PM 40.9209 -74.0509 118° Southeast 333 383 18,600 -818 Descending FlightAware ADS-B
Fri 02:03:36 PM 40.9107 -74.0280 121° Southeast 330 380 18,400 -1,200 Descending FlightAware ADS-B
Fri 02:03:47 PM 40.9013 -74.0075 121° Southeast 326 375 18,100 -1,385 Descending FlightAware ADS-B
Fri 02:03:49 PM 40.9001 -74.0044 117° Southeast 325 374 18,100 -1,125 Level FlightAware ADS-B
Fri 02:04:19 PM 40.8713 -73.9591 130° Southeast 317 365 17,500 -1,200 Descending FlightAware ADS-B
Fri 02:04:34 PM 40.8572 -73.9371 130° Southeast 318 366 17,200 -1,161 Descending FlightAware ADS-B
Fri 02:04:50 PM 40.8424 -73.9137 130° Southeast 312 359 16,900 -1,277 Descending FlightAware ADS-B
Fri 02:05:21 PM 40.8135 -73.8684 130° Southeast 308 354 16,200 -1,333 Descending FlightAware ADS-B
Fri 02:05:53 PM 40.7845 -73.8228 130° Southeast 304 350 15,500 -1,406 Descending FlightAware ADS-B
Fri 02:06:25 PM 40.7558 -73.7780 130° Southeast 301 346 14,700 -1,429 Descending FlightAware ADS-B
Fri 02:06:56 PM 40.7274 -73.7355 131° Southeast 294 338 14,000 -1,129 Descending FlightAware ADS-B
Fri 02:07:50 PM 40.6800 -73.6630 131° Southeast 296 341 13,100 -720 Descending FlightAware ADS-B
Fri 02:08:11 PM 40.6608 -73.6362 133° Southeast 293 337 13,100 -214 Level FlightAware ADS-B
Fri 02:08:46 PM 40.6287 -73.5881 131° Southeast 294 338 12,900 -1,200 Descending FlightAware ADS-B
Fri 02:09:16 PM 40.6013 -73.5488 133° Southeast 290 334 11,800 -2,400 Descending FlightAware ADS-B
Fri 02:09:36 PM 40.5808 -73.5263 140° Southeast 282 325 10,900 -2,600 Descending FlightAware ADS-B
Fri 02:09:46 PM 40.5696 -73.5211 161° South 277 319 10,500 -2,333 Descending FlightAware ADS-B
Fri 02:09:54 PM 40.5591 -73.5203 177° South 273 314 10,200 -2,526 Descending FlightAware ADS-B
Fri 02:10:05 PM 40.5460 -73.5250 195° South 271 312 9,700 -2,625 Descending FlightAware ADS-B
Fri 02:10:10 PM 40.5402 -73.5289 207° Southwest 270 311 9,500 -2,500 Descending FlightAware ADS-B
Fri 02:10:17 PM 40.5335 -73.5343 211° Southwest 269 310 9,200 -2,250 Descending FlightAware ADS-B
Fri 02:10:34 PM 40.5159 -73.5519 217° Southwest 266 306 8,600 -2,182 Descending FlightAware ADS-B
Fri 02:10:50 PM 40.5008 -73.5675 218° Southwest 264 304 8,000 -2,129 Descending FlightAware ADS-B
Fri 02:11:05 PM 40.4862 -73.5819 217° Southwest 262 302 7,500 -2,200 Descending FlightAware ADS-B
Fri 02:11:20 PM 40.4716 -73.5961 216° Southwest 260 299 6,900 -2,323 Descending FlightAware ADS-B
Fri 02:11:36 PM 40.4558 -73.6113 216° Southwest 258 297 6,300 -2,000 Descending FlightAware ADS-B
Fri 02:11:53 PM 40.4400 -73.6273 218° Southwest 256 295 5,800 -1,920 Descending FlightAware ADS-B
Fri 02:12:01 PM 40.4322 -73.6348 216° Southwest 253 291 5,500 -1,895 Descending FlightAware ADS-B
Fri 02:12:31 PM 40.4140 -73.6680 234° Southwest 255 293 4,600 -1,527 Descending FlightAware ADS-B
Fri 02:12:56 PM 40.3988 -73.7068 243° Southwest 253 291 4,100 -811 Descending FlightAware ADS-B
Fri 02:13:08 PM 40.3938 -73.7241 249° West 254 292 4,100  Level FlightAware ADS-B
Fri 02:13:25 PM 40.3869 -73.7486 250° West 254 292 4,100  Level FlightAware ADS-B
Fri 02:13:43 PM 40.3797 -73.7748 250° West 256 295 4,100  Level FlightAware ADS-B
Fri 02:14:01 PM 40.3721 -73.8013 249° West 259 298 4,100  Level FlightAware ADS-B
Fri 02:14:17 PM 40.3661 -73.8236 251° West 259 298 4,100  Level FlightAware ADS-B
Fri 02:14:23 PM 40.3653 -73.8331 264° West 263 303 4,100  Level FlightAware ADS-B
Fri 02:14:28 PM 40.3659 -73.8427 275° West 266 306 4,100  Level FlightAware ADS-B
Fri 02:14:43 PM 40.3733 -73.8648 294° West 264 304 4,100  Level FlightAware ADS-B
Fri 02:14:47 PM 40.3767 -73.8695 314° West 263 303 4,100  Level FlightAware ADS-B
Fri 02:14:54 PM 40.3832 -73.8765 321° Northwest 258 297 4,100  Level FlightAware ADS-B
Fri 02:15:00 PM 40.3897 -73.8807 334° Northwest 251 289 4,100  Level FlightAware ADS-B
Fri 02:15:05 PM 40.3953 -73.8830 343° North 248 285 4,100  Level FlightAware ADS-B
Fri 02:15:08 PM 40.3987 -73.8838 350° North 248 285 4,100  Level FlightAware ADS-B
Fri 02:15:13 PM 40.4035 -73.8846 353° North 243 280 4,100 -545 Level FlightAware ADS-B
Fri 02:15:19 PM 40.4110 -73.8850 358° North 239 275 4,000 -1,304 Descending FlightAware ADS-B
Fri 02:15:36 PM 40.4295 -73.8857 358° North 238 274 3,600 -571 Descending FlightAware ADS-B
Fri 02:16:22 PM 40.4770 -73.8870 359° North 213 245 3,400 -493 Descending FlightAware ADS-B
Fri 02:16:49 PM 40.4990 -73.8810 12° North 208 239 3,000 -1,065 Descending FlightAware ADS-B
Fri 02:17:24 PM 40.5290 -73.8580 30° Northeast 199 229 2,300 -1,200 Descending FlightAware ADS-B
Fri 02:17:49 PM 40.5500 -73.8430 28° Northeast 191 220 1,800 -1,138 Descending FlightAware ADS-B
Fri 02:18:22 PM 40.5740 -73.8230 32° Northeast 177 204 1,200 -1,000 Descending FlightAware ADS-B
Fri 02:18:49 PM 40.5920 -73.8090 31° Northeast 170 196 800 -735 Descending FlightAware ADS-B
Fri 02:19:11 PM 40.6020 -73.8020 28° Northeast 167 192 600 -706 Descending FlightAware ADS-B
Fri 02:19:40 PM 40.6180 -73.7890 32° Northeast 153 176 200 -828 Descending FlightAware ADS-B
Fri 02:20:11 PM 40.6370 -73.7740 31° Northeast 60 69 -387 Descending FlightAware ADS-B
Fri 02:20:25 PM 40.6390 -73.7720 37° Northeast 23 26  Level FlightAware ADS-B
Fri 02:20:41 PM 40.6400 -73.7730 323° Northwest 31 36  Level FlightAware ADS-B

Login

Don't have an account? Register now (free) for customized features, flight alerts, and more!